<?xml version="1.0" encoding="utf-8"?>
<gpx xmlns:xsi="http://www.w3.org/2001/XMLSchema-instance" xmlns:xsd="http://www.w3.org/2001/XMLSchema" version="1.1" creator="Shapelink.com" xmlns="http://www.topografix.com/GPX/1/1" xmlns:gpxtpx="http://www.garmin.com/xmlschemas/TrackPointExtension/v1">
  <metadata>
    <name>Løping 9.34 km, 2011-08-06</name>
    <desc></desc>
    <author><name>Andreas Falk-Larssen</name></author> 
    <time>2011-08-06T18:02:41Z</time>
  </metadata>
  <trk>
    <name>Løping 9.34 km, 2011-08-06</name>
    <trkseg>
      <trkpt lat="63.4301305" lon="10.349874">
        <ele>108.4</ele>
        <time>2011-08-06T18:02:41Z</time>
      </trkpt>
      <trkpt lat="63.4302115" lon="10.3494664">
        <ele>102.6</ele>
        <time>2011-08-06T18:02:46Z</time>
      </trkpt>
      <trkpt lat="63.430255" lon="10.3489865">
        <ele>103.2</ele>
        <time>2011-08-06T18:02:50Z</time>
      </trkpt>
      <trkpt lat="63.430317" lon="10.3486656">
        <ele>104.2</ele>
        <time>2011-08-06T18:02:54Z</time>
      </trkpt>
      <trkpt lat="63.4303848" lon="10.3485353">
        <ele>101.6</ele>
        <time>2011-08-06T18:02:57Z</time>
      </trkpt>
      <trkpt lat="63.4304224" lon="10.3484708">
        <ele>97.8</ele>
        <time>2011-08-06T18:02:59Z</time>
      </trkpt>
      <trkpt lat="63.4305451" lon="10.3483238">
        <ele>96</ele>
        <time>2011-08-06T18:03:04Z</time>
      </trkpt>
      <trkpt lat="63.4305672" lon="10.3483117">
        <ele>94.8</ele>
        <time>2011-08-06T18:03:05Z</time>
      </trkpt>
      <trkpt lat="63.4306179" lon="10.3482321">
        <ele>95</ele>
        <time>2011-08-06T18:03:08Z</time>
      </trkpt>
      <trkpt lat="63.430658" lon="10.3481634">
        <ele>96</ele>
        <time>2011-08-06T18:03:10Z</time>
      </trkpt>
      <trkpt lat="63.4307347" lon="10.3480413">
        <ele>95</ele>
        <time>2011-08-06T18:03:14Z</time>
      </trkpt>
      <trkpt lat="63.4308207" lon="10.3479594">
        <ele>94.6</ele>
        <time>2011-08-06T18:03:18Z</time>
      </trkpt>
      <trkpt lat="63.4308552" lon="10.3479167">
        <ele>97.4</ele>
        <time>2011-08-06T18:03:20Z</time>
      </trkpt>
      <trkpt lat="63.4308878" lon="10.3478367">
        <ele>98.8</ele>
        <time>2011-08-06T18:03:22Z</time>
      </trkpt>
      <trkpt lat="63.4309783" lon="10.3475569">
        <ele>103.6</ele>
        <time>2011-08-06T18:03:28Z</time>
      </trkpt>
      <trkpt lat="63.4310163" lon="10.3474313">
        <ele>103.4</ele>
        <time>2011-08-06T18:03:31Z</time>
      </trkpt>
      <trkpt lat="63.4310301" lon="10.3473832">
        <ele>104.2</ele>
        <time>2011-08-06T18:03:32Z</time>
      </trkpt>
      <trkpt lat="63.4310625" lon="10.34725">
        <ele>106</ele>
        <time>2011-08-06T18:03:36Z</time>
      </trkpt>
      <trkpt lat="63.4310587" lon="10.3471827">
        <ele>104.8</ele>
        <time>2011-08-06T18:03:38Z</time>
      </trkpt>
      <trkpt lat="63.4310666" lon="10.3471533">
        <ele>105.8</ele>
        <time>2011-08-06T18:03:39Z</time>
      </trkpt>
      <trkpt lat="63.4310834" lon="10.3470603">
        <ele>107.6</ele>
        <time>2011-08-06T18:03:41Z</time>
      </trkpt>
      <trkpt lat="63.431139" lon="10.3468303">
        <ele>108.8</ele>
        <time>2011-08-06T18:03:46Z</time>
      </trkpt>
      <trkpt lat="63.4311831" lon="10.3467016">
        <ele>109.2</ele>
        <time>2011-08-06T18:03:50Z</time>
      </trkpt>
      <trkpt lat="63.4312021" lon="10.346672">
        <ele>110</ele>
        <time>2011-08-06T18:03:51Z</time>
      </trkpt>
      <trkpt lat="63.4312641" lon="10.3465176">
        <ele>108</ele>
        <time>2011-08-06T18:03:56Z</time>
      </trkpt>
      <trkpt lat="63.4312766" lon="10.346492">
        <ele>107.2</ele>
        <time>2011-08-06T18:03:57Z</time>
      </trkpt>
      <trkpt lat="63.4313836" lon="10.3463539">
        <ele>108.2</ele>
        <time>2011-08-06T18:04:02Z</time>
      </trkpt>
      <trkpt lat="63.4314412" lon="10.3462789">
        <ele>111</ele>
        <time>2011-08-06T18:04:05Z</time>
      </trkpt>
      <trkpt lat="63.4314651" lon="10.3462318">
        <ele>112</ele>
        <time>2011-08-06T18:04:07Z</time>
      </trkpt>
      <trkpt lat="63.43151" lon="10.3461899">
        <ele>113.8</ele>
        <time>2011-08-06T18:04:09Z</time>
      </trkpt>
      <trkpt lat="63.4315591" lon="10.3461403">
        <ele>113.8</ele>
        <time>2011-08-06T18:04:12Z</time>
      </trkpt>
      <trkpt lat="63.431576" lon="10.346121">
        <ele>116</ele>
        <time>2011-08-06T18:04:13Z</time>
      </trkpt>
      <trkpt lat="63.4316825" lon="10.345977">
        <ele>121.6</ele>
        <time>2011-08-06T18:04:19Z</time>
      </trkpt>
      <trkpt lat="63.4317239" lon="10.3459329">
        <ele>122.6</ele>
        <time>2011-08-06T18:04:22Z</time>
      </trkpt>
      <trkpt lat="63.431753" lon="10.3459366">
        <ele>124.6</ele>
        <time>2011-08-06T18:04:24Z</time>
      </trkpt>
      <trkpt lat="63.4317712" lon="10.3459179">
        <ele>127</ele>
        <time>2011-08-06T18:04:26Z</time>
      </trkpt>
      <trkpt lat="63.4317703" lon="10.3458299">
        <ele>130.4</ele>
        <time>2011-08-06T18:04:28Z</time>
      </trkpt>
      <trkpt lat="63.4317487" lon="10.3456522">
        <ele>133.6</ele>
        <time>2011-08-06T18:04:33Z</time>
      </trkpt>
      <trkpt lat="63.4317424" lon="10.345618">
        <ele>132.4</ele>
        <time>2011-08-06T18:04:34Z</time>
      </trkpt>
      <trkpt lat="63.4316873" lon="10.3455837">
        <ele>137.4</ele>
        <time>2011-08-06T18:04:39Z</time>
      </trkpt>
      <trkpt lat="63.4316633" lon="10.3455533">
        <ele>138</ele>
        <time>2011-08-06T18:04:41Z</time>
      </trkpt>
      <trkpt lat="63.4316166" lon="10.3454695">
        <ele>141.6</ele>
        <time>2011-08-06T18:04:45Z</time>
      </trkpt>
      <trkpt lat="63.4315917" lon="10.3454374">
        <ele>142.6</ele>
        <time>2011-08-06T18:04:47Z</time>
      </trkpt>
      <trkpt lat="63.4315639" lon="10.3454182">
        <ele>143</ele>
        <time>2011-08-06T18:04:49Z</time>
      </trkpt>
      <trkpt lat="63.4315106" lon="10.3453071">
        <ele>144.2</ele>
        <time>2011-08-06T18:04:53Z</time>
      </trkpt>
      <trkpt lat="63.4314905" lon="10.3453109">
        <ele>144.2</ele>
        <time>2011-08-06T18:04:54Z</time>
      </trkpt>
      <trkpt lat="63.4314605" lon="10.3453155">
        <ele>146.6</ele>
        <time>2011-08-06T18:04:57Z</time>
      </trkpt>
      <trkpt lat="63.4314037" lon="10.3454216">
        <ele>146.8</ele>
        <time>2011-08-06T18:05:01Z</time>
      </trkpt>
      <trkpt lat="63.4313386" lon="10.3454286">
        <ele>145.2</ele>
        <time>2011-08-06T18:05:05Z</time>
      </trkpt>
      <trkpt lat="63.4313064" lon="10.3454274">
        <ele>143.6</ele>
        <time>2011-08-06T18:05:06Z</time>
      </trkpt>
      <trkpt lat="63.4312219" lon="10.3452544">
        <ele>143</ele>
        <time>2011-08-06T18:05:10Z</time>
      </trkpt>
      <trkpt lat="63.4311594" lon="10.3451379">
        <ele>142</ele>
        <time>2011-08-06T18:05:14Z</time>
      </trkpt>
      <trkpt lat="63.4311524" lon="10.3451052">
        <ele>141.6</ele>
        <time>2011-08-06T18:05:15Z</time>
      </trkpt>
      <trkpt lat="63.4311366" lon="10.3449493">
        <ele>142</ele>
        <time>2011-08-06T18:05:19Z</time>
      </trkpt>
      <trkpt lat="63.4311397" lon="10.344871">
        <ele>144</ele>
        <time>2011-08-06T18:05:21Z</time>
      </trkpt>
      <trkpt lat="63.4311365" lon="10.3447788">
        <ele>144.4</ele>
        <time>2011-08-06T18:05:24Z</time>
      </trkpt>
      <trkpt lat="63.4311303" lon="10.344758">
        <ele>144.8</ele>
        <time>2011-08-06T18:05:25Z</time>
      </trkpt>
      <trkpt lat="63.4311096" lon="10.3446328">
        <ele>144.8</ele>
        <time>2011-08-06T18:05:29Z</time>
      </trkpt>
      <trkpt lat="63.4311439" lon="10.344506">
        <ele>146.8</ele>
        <time>2011-08-06T18:05:34Z</time>
      </trkpt>
      <trkpt lat="63.4311742" lon="10.3444689">
        <ele>144.8</ele>
        <time>2011-08-06T18:05:36Z</time>
      </trkpt>
      <trkpt lat="63.4312267" lon="10.3444322">
        <ele>142.6</ele>
        <time>2011-08-06T18:05:39Z</time>
      </trkpt>
      <trkpt lat="63.4313291" lon="10.3443536">
        <ele>140</ele>
        <time>2011-08-06T18:05:45Z</time>
      </trkpt>
      <trkpt lat="63.4314061" lon="10.3442577">
        <ele>144.6</ele>
        <time>2011-08-06T18:05:50Z</time>
      </trkpt>
      <trkpt lat="63.4314467" lon="10.3441893">
        <ele>150.6</ele>
        <time>2011-08-06T18:05:53Z</time>
      </trkpt>
      <trkpt lat="63.4314934" lon="10.3440883">
        <ele>153.2</ele>
        <time>2011-08-06T18:05:56Z</time>
      </trkpt>
      <trkpt lat="63.4315212" lon="10.3439701">
        <ele>162.4</ele>
        <time>2011-08-06T18:06:02Z</time>
      </trkpt>
      <trkpt lat="63.4314421" lon="10.3438069">
        <ele>164.4</ele>
        <time>2011-08-06T18:06:07Z</time>
      </trkpt>
      <trkpt lat="63.4314805" lon="10.3436275">
        <ele>162</ele>
        <time>2011-08-06T18:06:11Z</time>
      </trkpt>
      <trkpt lat="63.4315271" lon="10.3434522">
        <ele>164.4</ele>
        <time>2011-08-06T18:06:15Z</time>
      </trkpt>
      <trkpt lat="63.4315301" lon="10.34333">
        <ele>170.6</ele>
        <time>2011-08-06T18:06:17Z</time>
      </trkpt>
      <trkpt lat="63.4315748" lon="10.3432015">
        <ele>176.2</ele>
        <time>2011-08-06T18:06:22Z</time>
      </trkpt>
      <trkpt lat="63.4316767" lon="10.3431022">
        <ele>175</ele>
        <time>2011-08-06T18:06:27Z</time>
      </trkpt>
      <trkpt lat="63.4317016" lon="10.3430786">
        <ele>174.4</ele>
        <time>2011-08-06T18:06:28Z</time>
      </trkpt>
      <trkpt lat="63.4317667" lon="10.3429468">
        <ele>173</ele>
        <time>2011-08-06T18:06:33Z</time>
      </trkpt>
      <trkpt lat="63.4318534" lon="10.3427635">
        <ele>170.8</ele>
        <time>2011-08-06T18:06:39Z</time>
      </trkpt>
      <trkpt lat="63.431914" lon="10.3426628">
        <ele>166.6</ele>
        <time>2011-08-06T18:06:43Z</time>
      </trkpt>
      <trkpt lat="63.4319796" lon="10.3425221">
        <ele>162.4</ele>
        <time>2011-08-06T18:06:48Z</time>
      </trkpt>
      <trkpt lat="63.4320616" lon="10.3423445">
        <ele>162.8</ele>
        <time>2011-08-06T18:06:54Z</time>
      </trkpt>
      <trkpt lat="63.4321644" lon="10.3422217">
        <ele>164.2</ele>
        <time>2011-08-06T18:06:59Z</time>
      </trkpt>
      <trkpt lat="63.4322685" lon="10.3421689">
        <ele>161</ele>
        <time>2011-08-06T18:07:04Z</time>
      </trkpt>
      <trkpt lat="63.432358" lon="10.3421157">
        <ele>157.2</ele>
        <time>2011-08-06T18:07:09Z</time>
      </trkpt>
      <trkpt lat="63.4324456" lon="10.3419315">
        <ele>157.6</ele>
        <time>2011-08-06T18:07:14Z</time>
      </trkpt>
      <trkpt lat="63.4325318" lon="10.3417091">
        <ele>166</ele>
        <time>2011-08-06T18:07:19Z</time>
      </trkpt>
      <trkpt lat="63.4326086" lon="10.3415091">
        <ele>173.8</ele>
        <time>2011-08-06T18:07:24Z</time>
      </trkpt>
      <trkpt lat="63.43268" lon="10.3412556">
        <ele>177</ele>
        <time>2011-08-06T18:07:29Z</time>
      </trkpt>
      <trkpt lat="63.4326802" lon="10.3412206">
        <ele>177</ele>
        <time>2011-08-06T18:07:30Z</time>
      </trkpt>
      <trkpt lat="63.4327159" lon="10.3411501">
        <ele>178.2</ele>
        <time>2011-08-06T18:07:34Z</time>
      </trkpt>
      <trkpt lat="63.4327879" lon="10.3410095">
        <ele>176.6</ele>
        <time>2011-08-06T18:07:39Z</time>
      </trkpt>
      <trkpt lat="63.4328095" lon="10.3410164">
        <ele>175</ele>
        <time>2011-08-06T18:07:40Z</time>
      </trkpt>
      <trkpt lat="63.4328876" lon="10.3410377">
        <ele>179.8</ele>
        <time>2011-08-06T18:07:43Z</time>
      </trkpt>
      <trkpt lat="63.4329876" lon="10.3410769">
        <ele>179.6</ele>
        <time>2011-08-06T18:07:47Z</time>
      </trkpt>
      <trkpt lat="63.4330919" lon="10.3410436">
        <ele>180.4</ele>
        <time>2011-08-06T18:07:52Z</time>
      </trkpt>
      <trkpt lat="63.4331341" lon="10.3410574">
        <ele>178.8</ele>
        <time>2011-08-06T18:07:54Z</time>
      </trkpt>
      <trkpt lat="63.4331443" lon="10.3410806">
        <ele>179.8</ele>
        <time>2011-08-06T18:07:55Z</time>
      </trkpt>
      <trkpt lat="63.4331729" lon="10.3411073">
        <ele>179</ele>
        <time>2011-08-06T18:07:57Z</time>
      </trkpt>
      <trkpt lat="63.4332043" lon="10.3411024">
        <ele>178</ele>
        <time>2011-08-06T18:08:01Z</time>
      </trkpt>
      <trkpt lat="63.4332164" lon="10.3411088">
        <ele>181</ele>
        <time>2011-08-06T18:08:02Z</time>
      </trkpt>
      <trkpt lat="63.4333107" lon="10.3411766">
        <ele>180.8</ele>
        <time>2011-08-06T18:08:06Z</time>
      </trkpt>
      <trkpt lat="63.4333409" lon="10.3412352">
        <ele>181.2</ele>
        <time>2011-08-06T18:08:07Z</time>
      </trkpt>
      <trkpt lat="63.4334484" lon="10.3413101">
        <ele>171.4</ele>
        <time>2011-08-06T18:08:11Z</time>
      </trkpt>
      <trkpt lat="63.4334737" lon="10.3413469">
        <ele>171.2</ele>
        <time>2011-08-06T18:08:12Z</time>
      </trkpt>
      <trkpt lat="63.4335467" lon="10.3414266">
        <ele>171.6</ele>
        <time>2011-08-06T18:08:17Z</time>
      </trkpt>
      <trkpt lat="63.4335781" lon="10.3414468">
        <ele>169.8</ele>
        <time>2011-08-06T18:08:19Z</time>
      </trkpt>
      <trkpt lat="63.43362" lon="10.3415136">
        <ele>166.6</ele>
        <time>2011-08-06T18:08:21Z</time>
      </trkpt>
      <trkpt lat="63.4337496" lon="10.3416557">
        <ele>176.6</ele>
        <time>2011-08-06T18:08:26Z</time>
      </trkpt>
      <trkpt lat="63.4338638" lon="10.3417361">
        <ele>181.8</ele>
        <time>2011-08-06T18:08:30Z</time>
      </trkpt>
      <trkpt lat="63.4339267" lon="10.3416562">
        <ele>185.4</ele>
        <time>2011-08-06T18:08:34Z</time>
      </trkpt>
      <trkpt lat="63.4339679" lon="10.3415286">
        <ele>191.4</ele>
        <time>2011-08-06T18:08:38Z</time>
      </trkpt>
      <trkpt lat="63.4339735" lon="10.3414578">
        <ele>191.8</ele>
        <time>2011-08-06T18:08:40Z</time>
      </trkpt>
      <trkpt lat="63.4339741" lon="10.3414087">
        <ele>192.8</ele>
        <time>2011-08-06T18:08:42Z</time>
      </trkpt>
      <trkpt lat="63.4339821" lon="10.3413389">
        <ele>195.4</ele>
        <time>2011-08-06T18:08:44Z</time>
      </trkpt>
      <trkpt lat="63.4339631" lon="10.3410452">
        <ele>197.4</ele>
        <time>2011-08-06T18:08:50Z</time>
      </trkpt>
      <trkpt lat="63.4339351" lon="10.3409969">
        <ele>198.4</ele>
        <time>2011-08-06T18:08:52Z</time>
      </trkpt>
      <trkpt lat="63.4338954" lon="10.3409062">
        <ele>198.4</ele>
        <time>2011-08-06T18:08:54Z</time>
      </trkpt>
      <trkpt lat="63.4338522" lon="10.3407461">
        <ele>199.8</ele>
        <time>2011-08-06T18:08:57Z</time>
      </trkpt>
      <trkpt lat="63.4338491" lon="10.3406696">
        <ele>199.8</ele>
        <time>2011-08-06T18:08:59Z</time>
      </trkpt>
      <trkpt lat="63.4338438" lon="10.3403934">
        <ele>205</ele>
        <time>2011-08-06T18:09:04Z</time>
      </trkpt>
      <trkpt lat="63.4338359" lon="10.3403344">
        <ele>208.6</ele>
        <time>2011-08-06T18:09:05Z</time>
      </trkpt>
      <trkpt lat="63.4338455" lon="10.3402931">
        <ele>210</ele>
        <time>2011-08-06T18:09:06Z</time>
      </trkpt>
      <trkpt lat="63.4338413" lon="10.3402004">
        <ele>213.4</ele>
        <time>2011-08-06T18:09:08Z</time>
      </trkpt>
      <trkpt lat="63.4338203" lon="10.3400661">
        <ele>215.4</ele>
        <time>2011-08-06T18:09:11Z</time>
      </trkpt>
      <trkpt lat="63.4338075" lon="10.339979">
        <ele>218.4</ele>
        <time>2011-08-06T18:09:13Z</time>
      </trkpt>
      <trkpt lat="63.4338113" lon="10.3398526">
        <ele>217</ele>
        <time>2011-08-06T18:09:16Z</time>
      </trkpt>
      <trkpt lat="63.4338389" lon="10.3397821">
        <ele>217.6</ele>
        <time>2011-08-06T18:09:18Z</time>
      </trkpt>
      <trkpt lat="63.4339151" lon="10.3396023">
        <ele>220.6</ele>
        <time>2011-08-06T18:09:24Z</time>
      </trkpt>
      <trkpt lat="63.4339344" lon="10.3395309">
        <ele>222.2</ele>
        <time>2011-08-06T18:09:26Z</time>
      </trkpt>
      <trkpt lat="63.4339657" lon="10.339463">
        <ele>224.2</ele>
        <time>2011-08-06T18:09:28Z</time>
      </trkpt>
      <trkpt lat="63.4340073" lon="10.3391589">
        <ele>221.6</ele>
        <time>2011-08-06T18:09:34Z</time>
      </trkpt>
      <trkpt lat="63.4340507" lon="10.3389485">
        <ele>217.8</ele>
        <time>2011-08-06T18:09:39Z</time>
      </trkpt>
      <trkpt lat="63.4340503" lon="10.3388919">
        <ele>221.6</ele>
        <time>2011-08-06T18:09:40Z</time>
      </trkpt>
      <trkpt lat="63.4340529" lon="10.3387958">
        <ele>229.4</ele>
        <time>2011-08-06T18:09:43Z</time>
      </trkpt>
      <trkpt lat="63.434088" lon="10.338623">
        <ele>225.8</ele>
        <time>2011-08-06T18:09:47Z</time>
      </trkpt>
      <trkpt lat="63.434144" lon="10.3384367">
        <ele>224</ele>
        <time>2011-08-06T18:09:52Z</time>
      </trkpt>
      <trkpt lat="63.4341463" lon="10.338254">
        <ele>232.4</ele>
        <time>2011-08-06T18:09:57Z</time>
      </trkpt>
      <trkpt lat="63.4341394" lon="10.3381656">
        <ele>235.2</ele>
        <time>2011-08-06T18:10:00Z</time>
      </trkpt>
      <trkpt lat="63.4341276" lon="10.3380894">
        <ele>233.6</ele>
        <time>2011-08-06T18:10:02Z</time>
      </trkpt>
      <trkpt lat="63.43408" lon="10.3377978">
        <ele>238.2</ele>
        <time>2011-08-06T18:10:08Z</time>
      </trkpt>
      <trkpt lat="63.434087" lon="10.3377426">
        <ele>239.2</ele>
        <time>2011-08-06T18:10:09Z</time>
      </trkpt>
      <trkpt lat="63.4340678" lon="10.3376416">
        <ele>239.6</ele>
        <time>2011-08-06T18:10:12Z</time>
      </trkpt>
      <trkpt lat="63.4340979" lon="10.3375075">
        <ele>244.2</ele>
        <time>2011-08-06T18:10:16Z</time>
      </trkpt>
      <trkpt lat="63.4341856" lon="10.3373345">
        <ele>248.8</ele>
        <time>2011-08-06T18:10:22Z</time>
      </trkpt>
      <trkpt lat="63.4342003" lon="10.33732">
        <ele>249</ele>
        <time>2011-08-06T18:10:23Z</time>
      </trkpt>
      <trkpt lat="63.4342367" lon="10.3373195">
        <ele>248.2</ele>
        <time>2011-08-06T18:10:25Z</time>
      </trkpt>
      <trkpt lat="63.4342647" lon="10.3373639">
        <ele>246.4</ele>
        <time>2011-08-06T18:10:27Z</time>
      </trkpt>
      <trkpt lat="63.4342951" lon="10.3373689">
        <ele>245</ele>
        <time>2011-08-06T18:10:29Z</time>
      </trkpt>
      <trkpt lat="63.4343448" lon="10.3373151">
        <ele>243.8</ele>
        <time>2011-08-06T18:10:32Z</time>
      </trkpt>
      <trkpt lat="63.4344452" lon="10.3372775">
        <ele>243.6</ele>
        <time>2011-08-06T18:10:36Z</time>
      </trkpt>
      <trkpt lat="63.4345259" lon="10.337327">
        <ele>237.4</ele>
        <time>2011-08-06T18:10:40Z</time>
      </trkpt>
      <trkpt lat="63.4346082" lon="10.3373287">
        <ele>234.2</ele>
        <time>2011-08-06T18:10:43Z</time>
      </trkpt>
      <trkpt lat="63.4346563" lon="10.3373242">
        <ele>234.6</ele>
        <time>2011-08-06T18:10:45Z</time>
      </trkpt>
      <trkpt lat="63.4346798" lon="10.3372971">
        <ele>236</ele>
        <time>2011-08-06T18:10:46Z</time>
      </trkpt>
      <trkpt lat="63.4347568" lon="10.3372713">
        <ele>236.2</ele>
        <time>2011-08-06T18:10:49Z</time>
      </trkpt>
      <trkpt lat="63.4347937" lon="10.3372624">
        <ele>239.6</ele>
        <time>2011-08-06T18:10:50Z</time>
      </trkpt>
      <trkpt lat="63.4349178" lon="10.3372612">
        <ele>241.6</ele>
        <time>2011-08-06T18:10:54Z</time>
      </trkpt>
      <trkpt lat="63.4350001" lon="10.3371768">
        <ele>244.4</ele>
        <time>2011-08-06T18:10:58Z</time>
      </trkpt>
      <trkpt lat="63.435016" lon="10.3371283">
        <ele>244.6</ele>
        <time>2011-08-06T18:10:59Z</time>
      </trkpt>
      <trkpt lat="63.4351085" lon="10.3369553">
        <ele>245</ele>
        <time>2011-08-06T18:11:04Z</time>
      </trkpt>
      <trkpt lat="63.4351972" lon="10.3368127">
        <ele>242.8</ele>
        <time>2011-08-06T18:11:09Z</time>
      </trkpt>
      <trkpt lat="63.4352827" lon="10.3367134">
        <ele>238.4</ele>
        <time>2011-08-06T18:11:13Z</time>
      </trkpt>
      <trkpt lat="63.435369" lon="10.3365619">
        <ele>238.2</ele>
        <time>2011-08-06T18:11:18Z</time>
      </trkpt>
      <trkpt lat="63.435429" lon="10.3364886">
        <ele>240</ele>
        <time>2011-08-06T18:11:22Z</time>
      </trkpt>
      <trkpt lat="63.4355085" lon="10.3363542">
        <ele>242.2</ele>
        <time>2011-08-06T18:11:27Z</time>
      </trkpt>
      <trkpt lat="63.4355219" lon="10.3363341">
        <ele>242.2</ele>
        <time>2011-08-06T18:11:28Z</time>
      </trkpt>
      <trkpt lat="63.4355706" lon="10.3362441">
        <ele>246.6</ele>
        <time>2011-08-06T18:11:32Z</time>
      </trkpt>
      <trkpt lat="63.435593" lon="10.3361845">
        <ele>247.4</ele>
        <time>2011-08-06T18:11:34Z</time>
      </trkpt>
      <trkpt lat="63.435616" lon="10.3361388">
        <ele>249</ele>
        <time>2011-08-06T18:11:36Z</time>
      </trkpt>
      <trkpt lat="63.4356856" lon="10.3360345">
        <ele>250.2</ele>
        <time>2011-08-06T18:11:40Z</time>
      </trkpt>
      <trkpt lat="63.4357693" lon="10.3359464">
        <ele>250.8</ele>
        <time>2011-08-06T18:11:44Z</time>
      </trkpt>
      <trkpt lat="63.4358412" lon="10.3358965">
        <ele>252.2</ele>
        <time>2011-08-06T18:11:48Z</time>
      </trkpt>
      <trkpt lat="63.4359171" lon="10.3357608">
        <ele>255.4</ele>
        <time>2011-08-06T18:11:53Z</time>
      </trkpt>
      <trkpt lat="63.4359716" lon="10.3356753">
        <ele>258</ele>
        <time>2011-08-06T18:11:57Z</time>
      </trkpt>
      <trkpt lat="63.4360242" lon="10.3355636">
        <ele>257.8</ele>
        <time>2011-08-06T18:12:02Z</time>
      </trkpt>
      <trkpt lat="63.436084" lon="10.3353999">
        <ele>261.2</ele>
        <time>2011-08-06T18:12:07Z</time>
      </trkpt>
      <trkpt lat="63.4361164" lon="10.3353371">
        <ele>264.2</ele>
        <time>2011-08-06T18:12:09Z</time>
      </trkpt>
      <trkpt lat="63.4361611" lon="10.3352508">
        <ele>266.6</ele>
        <time>2011-08-06T18:12:12Z</time>
      </trkpt>
      <trkpt lat="63.4361724" lon="10.3351552">
        <ele>268</ele>
        <time>2011-08-06T18:12:15Z</time>
      </trkpt>
      <trkpt lat="63.4361847" lon="10.33513">
        <ele>268.8</ele>
        <time>2011-08-06T18:12:16Z</time>
      </trkpt>
      <trkpt lat="63.4362337" lon="10.3350425">
        <ele>273.8</ele>
        <time>2011-08-06T18:12:22Z</time>
      </trkpt>
      <trkpt lat="63.4362586" lon="10.3349187">
        <ele>274.4</ele>
        <time>2011-08-06T18:12:26Z</time>
      </trkpt>
      <trkpt lat="63.4362634" lon="10.3348686">
        <ele>276.4</ele>
        <time>2011-08-06T18:12:27Z</time>
      </trkpt>
      <trkpt lat="63.4362882" lon="10.3348217">
        <ele>278.8</ele>
        <time>2011-08-06T18:12:29Z</time>
      </trkpt>
      <trkpt lat="63.436339" lon="10.334788">
        <ele>277.8</ele>
        <time>2011-08-06T18:12:32Z</time>
      </trkpt>
      <trkpt lat="63.4363891" lon="10.3346967">
        <ele>279.6</ele>
        <time>2011-08-06T18:12:35Z</time>
      </trkpt>
      <trkpt lat="63.4364134" lon="10.3346322">
        <ele>281.4</ele>
        <time>2011-08-06T18:12:37Z</time>
      </trkpt>
      <trkpt lat="63.4364325" lon="10.3346196">
        <ele>282.2</ele>
        <time>2011-08-06T18:12:38Z</time>
      </trkpt>
      <trkpt lat="63.4364878" lon="10.3345197">
        <ele>282</ele>
        <time>2011-08-06T18:12:41Z</time>
      </trkpt>
      <trkpt lat="63.4364854" lon="10.33448">
        <ele>281.8</ele>
        <time>2011-08-06T18:12:43Z</time>
      </trkpt>
      <trkpt lat="63.4364725" lon="10.3344537">
        <ele>281.6</ele>
        <time>2011-08-06T18:12:44Z</time>
      </trkpt>
      <trkpt lat="63.4364693" lon="10.3344178">
        <ele>281.6</ele>
        <time>2011-08-06T18:12:45Z</time>
      </trkpt>
      <trkpt lat="63.4364682" lon="10.334208">
        <ele>281.8</ele>
        <time>2011-08-06T18:12:50Z</time>
      </trkpt>
      <trkpt lat="63.4365169" lon="10.3339672">
        <ele>289</ele>
        <time>2011-08-06T18:12:55Z</time>
      </trkpt>
      <trkpt lat="63.436521" lon="10.3338901">
        <ele>287.6</ele>
        <time>2011-08-06T18:12:57Z</time>
      </trkpt>
      <trkpt lat="63.4365221" lon="10.3338185">
        <ele>287</ele>
        <time>2011-08-06T18:12:59Z</time>
      </trkpt>
      <trkpt lat="63.436538" lon="10.3336402">
        <ele>285.8</ele>
        <time>2011-08-06T18:13:04Z</time>
      </trkpt>
      <trkpt lat="63.4365384" lon="10.333573">
        <ele>286.2</ele>
        <time>2011-08-06T18:13:06Z</time>
      </trkpt>
      <trkpt lat="63.4365436" lon="10.3333356">
        <ele>286.4</ele>
        <time>2011-08-06T18:13:12Z</time>
      </trkpt>
      <trkpt lat="63.436541" lon="10.3333085">
        <ele>287.8</ele>
        <time>2011-08-06T18:13:13Z</time>
      </trkpt>
      <trkpt lat="63.436497" lon="10.3331508">
        <ele>291.8</ele>
        <time>2011-08-06T18:13:18Z</time>
      </trkpt>
      <trkpt lat="63.436473" lon="10.3329606">
        <ele>286.6</ele>
        <time>2011-08-06T18:13:22Z</time>
      </trkpt>
      <trkpt lat="63.4364979" lon="10.332837">
        <ele>286</ele>
        <time>2011-08-06T18:13:26Z</time>
      </trkpt>
      <trkpt lat="63.4364992" lon="10.3327914">
        <ele>286.6</ele>
        <time>2011-08-06T18:13:27Z</time>
      </trkpt>
      <trkpt lat="63.4365414" lon="10.3325688">
        <ele>289.8</ele>
        <time>2011-08-06T18:13:32Z</time>
      </trkpt>
      <trkpt lat="63.4365629" lon="10.3325176">
        <ele>289.6</ele>
        <time>2011-08-06T18:13:34Z</time>
      </trkpt>
      <trkpt lat="63.4365613" lon="10.3324509">
        <ele>289.8</ele>
        <time>2011-08-06T18:13:36Z</time>
      </trkpt>
      <trkpt lat="63.4365652" lon="10.3324283">
        <ele>290</ele>
        <time>2011-08-06T18:13:37Z</time>
      </trkpt>
      <trkpt lat="63.4365659" lon="10.3322484">
        <ele>288.6</ele>
        <time>2011-08-06T18:13:42Z</time>
      </trkpt>
      <trkpt lat="63.4365626" lon="10.3322192">
        <ele>287.6</ele>
        <time>2011-08-06T18:13:44Z</time>
      </trkpt>
      <trkpt lat="63.4365763" lon="10.3322016">
        <ele>287</ele>
        <time>2011-08-06T18:13:45Z</time>
      </trkpt>
      <trkpt lat="63.4365771" lon="10.332179">
        <ele>286.6</ele>
        <time>2011-08-06T18:13:46Z</time>
      </trkpt>
      <trkpt lat="63.4365818" lon="10.3320692">
        <ele>285</ele>
        <time>2011-08-06T18:13:49Z</time>
      </trkpt>
      <trkpt lat="63.4365832" lon="10.3319766">
        <ele>285.2</ele>
        <time>2011-08-06T18:13:51Z</time>
      </trkpt>
      <trkpt lat="63.436587" lon="10.3319303">
        <ele>285.6</ele>
        <time>2011-08-06T18:13:52Z</time>
      </trkpt>
      <trkpt lat="63.4365899" lon="10.3318359">
        <ele>285.6</ele>
        <time>2011-08-06T18:13:55Z</time>
      </trkpt>
      <trkpt lat="63.436568" lon="10.3317093">
        <ele>288</ele>
        <time>2011-08-06T18:13:58Z</time>
      </trkpt>
      <trkpt lat="63.4365476" lon="10.3316175">
        <ele>287.8</ele>
        <time>2011-08-06T18:14:00Z</time>
      </trkpt>
      <trkpt lat="63.4364951" lon="10.3314298">
        <ele>292.2</ele>
        <time>2011-08-06T18:14:05Z</time>
      </trkpt>
      <trkpt lat="63.4364621" lon="10.3312743">
        <ele>293.2</ele>
        <time>2011-08-06T18:14:09Z</time>
      </trkpt>
      <trkpt lat="63.4364494" lon="10.331223">
        <ele>293.4</ele>
        <time>2011-08-06T18:14:10Z</time>
      </trkpt>
      <trkpt lat="63.4364351" lon="10.3310503">
        <ele>296</ele>
        <time>2011-08-06T18:14:14Z</time>
      </trkpt>
      <trkpt lat="63.4364072" lon="10.3309196">
        <ele>298.8</ele>
        <time>2011-08-06T18:14:17Z</time>
      </trkpt>
      <trkpt lat="63.4363704" lon="10.330834">
        <ele>301.8</ele>
        <time>2011-08-06T18:14:19Z</time>
      </trkpt>
      <trkpt lat="63.4363716" lon="10.3305919">
        <ele>302.2</ele>
        <time>2011-08-06T18:14:23Z</time>
      </trkpt>
      <trkpt lat="63.4363613" lon="10.3304108">
        <ele>303.4</ele>
        <time>2011-08-06T18:14:27Z</time>
      </trkpt>
      <trkpt lat="63.4363252" lon="10.3301772">
        <ele>305.6</ele>
        <time>2011-08-06T18:14:32Z</time>
      </trkpt>
      <trkpt lat="63.4362769" lon="10.3300984">
        <ele>307.6</ele>
        <time>2011-08-06T18:14:35Z</time>
      </trkpt>
      <trkpt lat="63.436258" lon="10.3300177">
        <ele>308.8</ele>
        <time>2011-08-06T18:14:37Z</time>
      </trkpt>
      <trkpt lat="63.4362066" lon="10.3298424">
        <ele>308.2</ele>
        <time>2011-08-06T18:14:42Z</time>
      </trkpt>
      <trkpt lat="63.4361728" lon="10.3295918">
        <ele>305.8</ele>
        <time>2011-08-06T18:14:47Z</time>
      </trkpt>
      <trkpt lat="63.4361762" lon="10.3294322">
        <ele>305.8</ele>
        <time>2011-08-06T18:14:50Z</time>
      </trkpt>
      <trkpt lat="63.4361607" lon="10.3293469">
        <ele>304.8</ele>
        <time>2011-08-06T18:14:52Z</time>
      </trkpt>
      <trkpt lat="63.4360895" lon="10.3291863">
        <ele>305.6</ele>
        <time>2011-08-06T18:14:56Z</time>
      </trkpt>
      <trkpt lat="63.436047" lon="10.3289969">
        <ele>303.8</ele>
        <time>2011-08-06T18:15:00Z</time>
      </trkpt>
      <trkpt lat="63.436033" lon="10.3289454">
        <ele>304.6</ele>
        <time>2011-08-06T18:15:01Z</time>
      </trkpt>
      <trkpt lat="63.4359462" lon="10.3287108">
        <ele>309.4</ele>
        <time>2011-08-06T18:15:05Z</time>
      </trkpt>
      <trkpt lat="63.4358961" lon="10.3284972">
        <ele>310</ele>
        <time>2011-08-06T18:15:09Z</time>
      </trkpt>
      <trkpt lat="63.435875" lon="10.3283456">
        <ele>310.2</ele>
        <time>2011-08-06T18:15:12Z</time>
      </trkpt>
      <trkpt lat="63.4358842" lon="10.328296">
        <ele>310</ele>
        <time>2011-08-06T18:15:13Z</time>
      </trkpt>
      <trkpt lat="63.4358838" lon="10.3280077">
        <ele>307.2</ele>
        <time>2011-08-06T18:15:18Z</time>
      </trkpt>
      <trkpt lat="63.435839" lon="10.3277265">
        <ele>305.4</ele>
        <time>2011-08-06T18:15:23Z</time>
      </trkpt>
      <trkpt lat="63.4357859" lon="10.3274626">
        <ele>306</ele>
        <time>2011-08-06T18:15:28Z</time>
      </trkpt>
      <trkpt lat="63.435712" lon="10.3271599">
        <ele>308.8</ele>
        <time>2011-08-06T18:15:34Z</time>
      </trkpt>
      <trkpt lat="63.4356056" lon="10.3268087">
        <ele>311.6</ele>
        <time>2011-08-06T18:15:41Z</time>
      </trkpt>
      <trkpt lat="63.4355822" lon="10.326665">
        <ele>314</ele>
        <time>2011-08-06T18:15:44Z</time>
      </trkpt>
      <trkpt lat="63.4355754" lon="10.3265523">
        <ele>315.2</ele>
        <time>2011-08-06T18:15:46Z</time>
      </trkpt>
      <trkpt lat="63.4355443" lon="10.3262419">
        <ele>315.2</ele>
        <time>2011-08-06T18:15:51Z</time>
      </trkpt>
      <trkpt lat="63.4355426" lon="10.3261609">
        <ele>315.4</ele>
        <time>2011-08-06T18:15:53Z</time>
      </trkpt>
      <trkpt lat="63.4355289" lon="10.3260051">
        <ele>315.2</ele>
        <time>2011-08-06T18:15:56Z</time>
      </trkpt>
      <trkpt lat="63.4355354" lon="10.32571">
        <ele>314.2</ele>
        <time>2011-08-06T18:16:01Z</time>
      </trkpt>
      <trkpt lat="63.4355506" lon="10.3253943">
        <ele>312.4</ele>
        <time>2011-08-06T18:16:06Z</time>
      </trkpt>
      <trkpt lat="63.435509" lon="10.3251623">
        <ele>314.4</ele>
        <time>2011-08-06T18:16:10Z</time>
      </trkpt>
      <trkpt lat="63.4354582" lon="10.3249572">
        <ele>314.6</ele>
        <time>2011-08-06T18:16:14Z</time>
      </trkpt>
      <trkpt lat="63.435447" lon="10.3246806">
        <ele>316.2</ele>
        <time>2011-08-06T18:16:19Z</time>
      </trkpt>
      <trkpt lat="63.4354385" lon="10.3246259">
        <ele>316.8</ele>
        <time>2011-08-06T18:16:20Z</time>
      </trkpt>
      <trkpt lat="63.4353665" lon="10.3243724">
        <ele>317.8</ele>
        <time>2011-08-06T18:16:25Z</time>
      </trkpt>
      <trkpt lat="63.4352771" lon="10.3242052">
        <ele>318</ele>
        <time>2011-08-06T18:16:30Z</time>
      </trkpt>
      <trkpt lat="63.4351976" lon="10.3240579">
        <ele>320.8</ele>
        <time>2011-08-06T18:16:34Z</time>
      </trkpt>
      <trkpt lat="63.4351824" lon="10.324016">
        <ele>321.4</ele>
        <time>2011-08-06T18:16:35Z</time>
      </trkpt>
      <trkpt lat="63.4351247" lon="10.3238211">
        <ele>322</ele>
        <time>2011-08-06T18:16:39Z</time>
      </trkpt>
      <trkpt lat="63.4351249" lon="10.3237695">
        <ele>321.8</ele>
        <time>2011-08-06T18:16:40Z</time>
      </trkpt>
      <trkpt lat="63.4350881" lon="10.3236209">
        <ele>324</ele>
        <time>2011-08-06T18:16:43Z</time>
      </trkpt>
      <trkpt lat="63.4350437" lon="10.3233553">
        <ele>326</ele>
        <time>2011-08-06T18:16:49Z</time>
      </trkpt>
      <trkpt lat="63.4350087" lon="10.3230694">
        <ele>327</ele>
        <time>2011-08-06T18:16:54Z</time>
      </trkpt>
      <trkpt lat="63.4350101" lon="10.322988">
        <ele>326.8</ele>
        <time>2011-08-06T18:16:56Z</time>
      </trkpt>
      <trkpt lat="63.43498" lon="10.3228885">
        <ele>327</ele>
        <time>2011-08-06T18:16:58Z</time>
      </trkpt>
      <trkpt lat="63.4349173" lon="10.3225697">
        <ele>327.6</ele>
        <time>2011-08-06T18:17:03Z</time>
      </trkpt>
      <trkpt lat="63.4348728" lon="10.3222139">
        <ele>328.8</ele>
        <time>2011-08-06T18:17:08Z</time>
      </trkpt>
      <trkpt lat="63.4348366" lon="10.3218535">
        <ele>330.2</ele>
        <time>2011-08-06T18:17:13Z</time>
      </trkpt>
      <trkpt lat="63.4348262" lon="10.3215466">
        <ele>332</ele>
        <time>2011-08-06T18:17:18Z</time>
      </trkpt>
      <trkpt lat="63.4348335" lon="10.321315">
        <ele>331.2</ele>
        <time>2011-08-06T18:17:23Z</time>
      </trkpt>
      <trkpt lat="63.434748" lon="10.3212092">
        <ele>329.6</ele>
        <time>2011-08-06T18:17:27Z</time>
      </trkpt>
      <trkpt lat="63.434743" lon="10.3211489">
        <ele>329.4</ele>
        <time>2011-08-06T18:17:28Z</time>
      </trkpt>
      <trkpt lat="63.4347281" lon="10.3210001">
        <ele>329.2</ele>
        <time>2011-08-06T18:17:30Z</time>
      </trkpt>
      <trkpt lat="63.4347089" lon="10.3207117">
        <ele>327</ele>
        <time>2011-08-06T18:17:34Z</time>
      </trkpt>
      <trkpt lat="63.4347219" lon="10.3204408">
        <ele>324.6</ele>
        <time>2011-08-06T18:17:38Z</time>
      </trkpt>
      <trkpt lat="63.4347211" lon="10.3203743">
        <ele>325</ele>
        <time>2011-08-06T18:17:39Z</time>
      </trkpt>
      <trkpt lat="63.4346657" lon="10.3201283">
        <ele>325</ele>
        <time>2011-08-06T18:17:44Z</time>
      </trkpt>
      <trkpt lat="63.4346097" lon="10.3198593">
        <ele>323.4</ele>
        <time>2011-08-06T18:17:49Z</time>
      </trkpt>
      <trkpt lat="63.4345719" lon="10.3195379">
        <ele>321</ele>
        <time>2011-08-06T18:17:54Z</time>
      </trkpt>
      <trkpt lat="63.4345539" lon="10.3194793">
        <ele>321.6</ele>
        <time>2011-08-06T18:17:55Z</time>
      </trkpt>
      <trkpt lat="63.4345027" lon="10.3192568">
        <ele>320.8</ele>
        <time>2011-08-06T18:17:59Z</time>
      </trkpt>
      <trkpt lat="63.434481" lon="10.3190343">
        <ele>319.4</ele>
        <time>2011-08-06T18:18:03Z</time>
      </trkpt>
      <trkpt lat="63.4344667" lon="10.3186919">
        <ele>320</ele>
        <time>2011-08-06T18:18:08Z</time>
      </trkpt>
      <trkpt lat="63.4344556" lon="10.3183539">
        <ele>318.6</ele>
        <time>2011-08-06T18:18:14Z</time>
      </trkpt>
      <trkpt lat="63.4344993" lon="10.3180899">
        <ele>319.8</ele>
        <time>2011-08-06T18:18:18Z</time>
      </trkpt>
      <trkpt lat="63.434494" lon="10.317983">
        <ele>320.4</ele>
        <time>2011-08-06T18:18:20Z</time>
      </trkpt>
      <trkpt lat="63.434462" lon="10.3178896">
        <ele>320.4</ele>
        <time>2011-08-06T18:18:22Z</time>
      </trkpt>
      <trkpt lat="63.4343955" lon="10.3176587">
        <ele>321.2</ele>
        <time>2011-08-06T18:18:27Z</time>
      </trkpt>
      <trkpt lat="63.4343759" lon="10.3174334">
        <ele>322.4</ele>
        <time>2011-08-06T18:18:31Z</time>
      </trkpt>
      <trkpt lat="63.4343355" lon="10.3171984">
        <ele>324.4</ele>
        <time>2011-08-06T18:18:35Z</time>
      </trkpt>
      <trkpt lat="63.4343118" lon="10.3169565">
        <ele>324.2</ele>
        <time>2011-08-06T18:18:39Z</time>
      </trkpt>
      <trkpt lat="63.434319" lon="10.3169058">
        <ele>324.2</ele>
        <time>2011-08-06T18:18:40Z</time>
      </trkpt>
      <trkpt lat="63.4343601" lon="10.3166131">
        <ele>325.4</ele>
        <time>2011-08-06T18:18:45Z</time>
      </trkpt>
      <trkpt lat="63.4343896" lon="10.3163266">
        <ele>325</ele>
        <time>2011-08-06T18:18:50Z</time>
      </trkpt>
      <trkpt lat="63.4343739" lon="10.3162111">
        <ele>327.8</ele>
        <time>2011-08-06T18:18:52Z</time>
      </trkpt>
      <trkpt lat="63.434305" lon="10.316127">
        <ele>330.2</ele>
        <time>2011-08-06T18:18:54Z</time>
      </trkpt>
      <trkpt lat="63.4342663" lon="10.3160604">
        <ele>330</ele>
        <time>2011-08-06T18:18:56Z</time>
      </trkpt>
      <trkpt lat="63.4342137" lon="10.3159362">
        <ele>331.6</ele>
        <time>2011-08-06T18:18:59Z</time>
      </trkpt>
      <trkpt lat="63.4341852" lon="10.315821">
        <ele>331.8</ele>
        <time>2011-08-06T18:19:02Z</time>
      </trkpt>
      <trkpt lat="63.434186" lon="10.3157842">
        <ele>332.4</ele>
        <time>2011-08-06T18:19:03Z</time>
      </trkpt>
      <trkpt lat="63.4341813" lon="10.3156293">
        <ele>332.8</ele>
        <time>2011-08-06T18:19:06Z</time>
      </trkpt>
      <trkpt lat="63.4341798" lon="10.3155119">
        <ele>334.6</ele>
        <time>2011-08-06T18:19:08Z</time>
      </trkpt>
      <trkpt lat="63.4341339" lon="10.315331">
        <ele>337.6</ele>
        <time>2011-08-06T18:19:12Z</time>
      </trkpt>
      <trkpt lat="63.4341149" lon="10.3152502">
        <ele>339.8</ele>
        <time>2011-08-06T18:19:15Z</time>
      </trkpt>
      <trkpt lat="63.4341126" lon="10.3152272">
        <ele>339.2</ele>
        <time>2011-08-06T18:19:16Z</time>
      </trkpt>
      <trkpt lat="63.4341113" lon="10.3150642">
        <ele>343.4</ele>
        <time>2011-08-06T18:19:20Z</time>
      </trkpt>
      <trkpt lat="63.4340887" lon="10.3149799">
        <ele>342.6</ele>
        <time>2011-08-06T18:19:22Z</time>
      </trkpt>
      <trkpt lat="63.4340317" lon="10.3148575">
        <ele>345.8</ele>
        <time>2011-08-06T18:19:25Z</time>
      </trkpt>
      <trkpt lat="63.433997" lon="10.31463">
        <ele>350.8</ele>
        <time>2011-08-06T18:19:29Z</time>
      </trkpt>
      <trkpt lat="63.433888" lon="10.3143807">
        <ele>353.6</ele>
        <time>2011-08-06T18:19:35Z</time>
      </trkpt>
      <trkpt lat="63.4338123" lon="10.3142306">
        <ele>355.2</ele>
        <time>2011-08-06T18:19:40Z</time>
      </trkpt>
      <trkpt lat="63.4336909" lon="10.3140567">
        <ele>353.2</ele>
        <time>2011-08-06T18:19:45Z</time>
      </trkpt>
      <trkpt lat="63.4335872" lon="10.3138586">
        <ele>352.8</ele>
        <time>2011-08-06T18:19:50Z</time>
      </trkpt>
      <trkpt lat="63.4334956" lon="10.3137235">
        <ele>347.8</ele>
        <time>2011-08-06T18:19:55Z</time>
      </trkpt>
      <trkpt lat="63.4334537" lon="10.3136192">
        <ele>349.4</ele>
        <time>2011-08-06T18:19:58Z</time>
      </trkpt>
      <trkpt lat="63.4334466" lon="10.313562">
        <ele>349.6</ele>
        <time>2011-08-06T18:19:59Z</time>
      </trkpt>
      <trkpt lat="63.4333636" lon="10.313316">
        <ele>347.8</ele>
        <time>2011-08-06T18:20:04Z</time>
      </trkpt>
      <trkpt lat="63.4333446" lon="10.3132661">
        <ele>347.4</ele>
        <time>2011-08-06T18:20:05Z</time>
      </trkpt>
      <trkpt lat="63.4332843" lon="10.3130285">
        <ele>347.6</ele>
        <time>2011-08-06T18:20:10Z</time>
      </trkpt>
      <trkpt lat="63.4332657" lon="10.3128126">
        <ele>347.8</ele>
        <time>2011-08-06T18:20:14Z</time>
      </trkpt>
      <trkpt lat="63.4332355" lon="10.3125664">
        <ele>346.6</ele>
        <time>2011-08-06T18:20:19Z</time>
      </trkpt>
      <trkpt lat="63.4332561" lon="10.3123866">
        <ele>347.8</ele>
        <time>2011-08-06T18:20:23Z</time>
      </trkpt>
      <trkpt lat="63.4333214" lon="10.3122084">
        <ele>348.4</ele>
        <time>2011-08-06T18:20:27Z</time>
      </trkpt>
      <trkpt lat="63.4333284" lon="10.3121473">
        <ele>348.4</ele>
        <time>2011-08-06T18:20:28Z</time>
      </trkpt>
      <trkpt lat="63.4333665" lon="10.3119235">
        <ele>349</ele>
        <time>2011-08-06T18:20:32Z</time>
      </trkpt>
      <trkpt lat="63.4334152" lon="10.3116106">
        <ele>349</ele>
        <time>2011-08-06T18:20:38Z</time>
      </trkpt>
      <trkpt lat="63.4333898" lon="10.3113509">
        <ele>348</ele>
        <time>2011-08-06T18:20:42Z</time>
      </trkpt>
      <trkpt lat="63.4333315" lon="10.3110769">
        <ele>349.8</ele>
        <time>2011-08-06T18:20:47Z</time>
      </trkpt>
      <trkpt lat="63.433281" lon="10.3107813">
        <ele>353.4</ele>
        <time>2011-08-06T18:20:52Z</time>
      </trkpt>
      <trkpt lat="63.4332091" lon="10.3106139">
        <ele>358.2</ele>
        <time>2011-08-06T18:20:56Z</time>
      </trkpt>
      <trkpt lat="63.4331371" lon="10.3104852">
        <ele>358.4</ele>
        <time>2011-08-06T18:21:00Z</time>
      </trkpt>
      <trkpt lat="63.4330268" lon="10.3103002">
        <ele>360</ele>
        <time>2011-08-06T18:21:06Z</time>
      </trkpt>
      <trkpt lat="63.4329388" lon="10.3101194">
        <ele>360.4</ele>
        <time>2011-08-06T18:21:11Z</time>
      </trkpt>
      <trkpt lat="63.4328417" lon="10.3099414">
        <ele>360.6</ele>
        <time>2011-08-06T18:21:17Z</time>
      </trkpt>
      <trkpt lat="63.4327859" lon="10.3096947">
        <ele>361.6</ele>
        <time>2011-08-06T18:21:23Z</time>
      </trkpt>
      <trkpt lat="63.4327947" lon="10.3096239">
        <ele>363.2</ele>
        <time>2011-08-06T18:21:24Z</time>
      </trkpt>
      <trkpt lat="63.4327927" lon="10.3094592">
        <ele>365.2</ele>
        <time>2011-08-06T18:21:27Z</time>
      </trkpt>
      <trkpt lat="63.432767" lon="10.3092823">
        <ele>366.8</ele>
        <time>2011-08-06T18:21:32Z</time>
      </trkpt>
      <trkpt lat="63.4327498" lon="10.3091991">
        <ele>368.4</ele>
        <time>2011-08-06T18:21:34Z</time>
      </trkpt>
      <trkpt lat="63.4327449" lon="10.3091459">
        <ele>368.8</ele>
        <time>2011-08-06T18:21:35Z</time>
      </trkpt>
      <trkpt lat="63.4327422" lon="10.3089585">
        <ele>368.2</ele>
        <time>2011-08-06T18:21:38Z</time>
      </trkpt>
      <trkpt lat="63.4327717" lon="10.3087171">
        <ele>369.6</ele>
        <time>2011-08-06T18:21:42Z</time>
      </trkpt>
      <trkpt lat="63.4327653" lon="10.3084549">
        <ele>370</ele>
        <time>2011-08-06T18:21:46Z</time>
      </trkpt>
      <trkpt lat="63.4327538" lon="10.3084143">
        <ele>368.8</ele>
        <time>2011-08-06T18:21:47Z</time>
      </trkpt>
      <trkpt lat="63.4327345" lon="10.3082945">
        <ele>367.4</ele>
        <time>2011-08-06T18:21:50Z</time>
      </trkpt>
      <trkpt lat="63.4327088" lon="10.3081743">
        <ele>368.4</ele>
        <time>2011-08-06T18:21:52Z</time>
      </trkpt>
      <trkpt lat="63.4327061" lon="10.3080693">
        <ele>370</ele>
        <time>2011-08-06T18:21:54Z</time>
      </trkpt>
      <trkpt lat="63.4327019" lon="10.3079076">
        <ele>371</ele>
        <time>2011-08-06T18:21:57Z</time>
      </trkpt>
      <trkpt lat="63.4327002" lon="10.3077591">
        <ele>370.6</ele>
        <time>2011-08-06T18:22:00Z</time>
      </trkpt>
      <trkpt lat="63.4326969" lon="10.3077036">
        <ele>372.6</ele>
        <time>2011-08-06T18:22:01Z</time>
      </trkpt>
      <trkpt lat="63.4327005" lon="10.3074847">
        <ele>376.8</ele>
        <time>2011-08-06T18:22:05Z</time>
      </trkpt>
      <trkpt lat="63.4327034" lon="10.3074428">
        <ele>375.8</ele>
        <time>2011-08-06T18:22:06Z</time>
      </trkpt>
      <trkpt lat="63.4326902" lon="10.3072335">
        <ele>376.6</ele>
        <time>2011-08-06T18:22:10Z</time>
      </trkpt>
      <trkpt lat="63.43267" lon="10.3071159">
        <ele>375</ele>
        <time>2011-08-06T18:22:15Z</time>
      </trkpt>
      <trkpt lat="63.432659" lon="10.3070128">
        <ele>381.2</ele>
        <time>2011-08-06T18:22:18Z</time>
      </trkpt>
      <trkpt lat="63.4326681" lon="10.3069538">
        <ele>383.8</ele>
        <time>2011-08-06T18:22:20Z</time>
      </trkpt>
      <trkpt lat="63.4327078" lon="10.3068929">
        <ele>385.2</ele>
        <time>2011-08-06T18:22:24Z</time>
      </trkpt>
      <trkpt lat="63.4327118" lon="10.3068944">
        <ele>386.4</ele>
        <time>2011-08-06T18:22:25Z</time>
      </trkpt>
      <trkpt lat="63.4327304" lon="10.3068994">
        <ele>385.8</ele>
        <time>2011-08-06T18:22:27Z</time>
      </trkpt>
      <trkpt lat="63.4327483" lon="10.3069039">
        <ele>385.6</ele>
        <time>2011-08-06T18:22:28Z</time>
      </trkpt>
      <trkpt lat="63.4327961" lon="10.306861">
        <ele>383.8</ele>
        <time>2011-08-06T18:22:32Z</time>
      </trkpt>
      <trkpt lat="63.4328388" lon="10.3067305">
        <ele>384</ele>
        <time>2011-08-06T18:22:36Z</time>
      </trkpt>
      <trkpt lat="63.4328733" lon="10.3066973">
        <ele>384.6</ele>
        <time>2011-08-06T18:22:38Z</time>
      </trkpt>
      <trkpt lat="63.4329241" lon="10.3066099">
        <ele>387.8</ele>
        <time>2011-08-06T18:22:41Z</time>
      </trkpt>
      <trkpt lat="63.4329462" lon="10.3065556">
        <ele>388</ele>
        <time>2011-08-06T18:22:43Z</time>
      </trkpt>
      <trkpt lat="63.4329969" lon="10.3064028">
        <ele>387.4</ele>
        <time>2011-08-06T18:22:46Z</time>
      </trkpt>
      <trkpt lat="63.4331012" lon="10.3062078">
        <ele>388</ele>
        <time>2011-08-06T18:22:51Z</time>
      </trkpt>
      <trkpt lat="63.4331133" lon="10.306227">
        <ele>387.6</ele>
        <time>2011-08-06T18:22:52Z</time>
      </trkpt>
      <trkpt lat="63.4331593" lon="10.3062638">
        <ele>387</ele>
        <time>2011-08-06T18:22:55Z</time>
      </trkpt>
      <trkpt lat="63.4331749" lon="10.3062701">
        <ele>387</ele>
        <time>2011-08-06T18:22:56Z</time>
      </trkpt>
      <trkpt lat="63.4332064" lon="10.3062694">
        <ele>386.8</ele>
        <time>2011-08-06T18:22:58Z</time>
      </trkpt>
      <trkpt lat="63.4332587" lon="10.3061835">
        <ele>386.2</ele>
        <time>2011-08-06T18:23:02Z</time>
      </trkpt>
      <trkpt lat="63.433335" lon="10.3060533">
        <ele>390.4</ele>
        <time>2011-08-06T18:23:07Z</time>
      </trkpt>
      <trkpt lat="63.4333846" lon="10.3059573">
        <ele>391.8</ele>
        <time>2011-08-06T18:23:12Z</time>
      </trkpt>
      <trkpt lat="63.4334118" lon="10.3059105">
        <ele>396.2</ele>
        <time>2011-08-06T18:23:17Z</time>
      </trkpt>
      <trkpt lat="63.4334516" lon="10.3058888">
        <ele>399.2</ele>
        <time>2011-08-06T18:23:22Z</time>
      </trkpt>
      <trkpt lat="63.4335165" lon="10.3059051">
        <ele>401.8</ele>
        <time>2011-08-06T18:23:27Z</time>
      </trkpt>
      <trkpt lat="63.4335271" lon="10.3058948">
        <ele>402.8</ele>
        <time>2011-08-06T18:23:29Z</time>
      </trkpt>
      <trkpt lat="63.4335376" lon="10.305812">
        <ele>405</ele>
        <time>2011-08-06T18:23:32Z</time>
      </trkpt>
      <trkpt lat="63.4335395" lon="10.3057966">
        <ele>404.4</ele>
        <time>2011-08-06T18:23:33Z</time>
      </trkpt>
      <trkpt lat="63.4335324" lon="10.3057622">
        <ele>404.6</ele>
        <time>2011-08-06T18:23:34Z</time>
      </trkpt>
      <trkpt lat="63.4335317" lon="10.3056805">
        <ele>405.4</ele>
        <time>2011-08-06T18:23:36Z</time>
      </trkpt>
      <trkpt lat="63.433569" lon="10.3055802">
        <ele>406</ele>
        <time>2011-08-06T18:23:40Z</time>
      </trkpt>
      <trkpt lat="63.4335732" lon="10.3055356">
        <ele>405.2</ele>
        <time>2011-08-06T18:23:43Z</time>
      </trkpt>
      <trkpt lat="63.4335654" lon="10.3054912">
        <ele>404.4</ele>
        <time>2011-08-06T18:23:45Z</time>
      </trkpt>
      <trkpt lat="63.4335631" lon="10.305422">
        <ele>405.2</ele>
        <time>2011-08-06T18:23:48Z</time>
      </trkpt>
      <trkpt lat="63.4335676" lon="10.3054083">
        <ele>406</ele>
        <time>2011-08-06T18:23:49Z</time>
      </trkpt>
      <trkpt lat="63.433584" lon="10.3053796">
        <ele>406.6</ele>
        <time>2011-08-06T18:23:55Z</time>
      </trkpt>
      <trkpt lat="63.4335803" lon="10.3054179">
        <ele>407.4</ele>
        <time>2011-08-06T18:24:04Z</time>
      </trkpt>
      <trkpt lat="63.4335809" lon="10.3055381">
        <ele>406.4</ele>
        <time>2011-08-06T18:24:10Z</time>
      </trkpt>
      <trkpt lat="63.4335905" lon="10.3055599">
        <ele>406.4</ele>
        <time>2011-08-06T18:24:12Z</time>
      </trkpt>
      <trkpt lat="63.4335984" lon="10.3055893">
        <ele>405.8</ele>
        <time>2011-08-06T18:24:14Z</time>
      </trkpt>
      <trkpt lat="63.4336181" lon="10.3056272">
        <ele>406.4</ele>
        <time>2011-08-06T18:24:16Z</time>
      </trkpt>
      <trkpt lat="63.4336281" lon="10.3056717">
        <ele>405.6</ele>
        <time>2011-08-06T18:24:18Z</time>
      </trkpt>
      <trkpt lat="63.4336359" lon="10.3056766">
        <ele>404.8</ele>
        <time>2011-08-06T18:24:20Z</time>
      </trkpt>
      <trkpt lat="63.4336197" lon="10.3056552">
        <ele>404</ele>
        <time>2011-08-06T18:24:23Z</time>
      </trkpt>
      <trkpt lat="63.4335772" lon="10.3056036">
        <ele>405</ele>
        <time>2011-08-06T18:24:30Z</time>
      </trkpt>
      <trkpt lat="63.4335612" lon="10.3056562">
        <ele>405.6</ele>
        <time>2011-08-06T18:24:34Z</time>
      </trkpt>
      <trkpt lat="63.4335618" lon="10.3057467">
        <ele>407.4</ele>
        <time>2011-08-06T18:24:39Z</time>
      </trkpt>
      <trkpt lat="63.4335618" lon="10.3058174">
        <ele>404.6</ele>
        <time>2011-08-06T18:24:42Z</time>
      </trkpt>
      <trkpt lat="63.4335574" lon="10.3058414">
        <ele>404</ele>
        <time>2011-08-06T18:24:44Z</time>
      </trkpt>
      <trkpt lat="63.4335561" lon="10.3058943">
        <ele>403.8</ele>
        <time>2011-08-06T18:24:46Z</time>
      </trkpt>
      <trkpt lat="63.4335587" lon="10.3059406">
        <ele>402</ele>
        <time>2011-08-06T18:24:48Z</time>
      </trkpt>
      <trkpt lat="63.4335332" lon="10.305925">
        <ele>398.6</ele>
        <time>2011-08-06T18:24:50Z</time>
      </trkpt>
      <trkpt lat="63.4334635" lon="10.3059058">
        <ele>396.6</ele>
        <time>2011-08-06T18:24:55Z</time>
      </trkpt>
      <trkpt lat="63.4334282" lon="10.3059074">
        <ele>397</ele>
        <time>2011-08-06T18:24:58Z</time>
      </trkpt>
      <trkpt lat="63.4334126" lon="10.3059276">
        <ele>396.6</ele>
        <time>2011-08-06T18:24:59Z</time>
      </trkpt>
      <trkpt lat="63.4333991" lon="10.3059649">
        <ele>396.4</ele>
        <time>2011-08-06T18:25:00Z</time>
      </trkpt>
      <trkpt lat="63.4333732" lon="10.3060407">
        <ele>394.4</ele>
        <time>2011-08-06T18:25:03Z</time>
      </trkpt>
      <trkpt lat="63.4333572" lon="10.3060717">
        <ele>396.8</ele>
        <time>2011-08-06T18:25:05Z</time>
      </trkpt>
      <trkpt lat="63.4333293" lon="10.3061239">
        <ele>398</ele>
        <time>2011-08-06T18:25:09Z</time>
      </trkpt>
      <trkpt lat="63.4333215" lon="10.3061336">
        <ele>396.4</ele>
        <time>2011-08-06T18:25:10Z</time>
      </trkpt>
      <trkpt lat="63.4333068" lon="10.3061304">
        <ele>393.8</ele>
        <time>2011-08-06T18:25:12Z</time>
      </trkpt>
      <trkpt lat="63.4332743" lon="10.3061483">
        <ele>391</ele>
        <time>2011-08-06T18:25:16Z</time>
      </trkpt>
      <trkpt lat="63.4332664" lon="10.3061953">
        <ele>390</ele>
        <time>2011-08-06T18:25:18Z</time>
      </trkpt>
      <trkpt lat="63.4332433" lon="10.3062256">
        <ele>390</ele>
        <time>2011-08-06T18:25:20Z</time>
      </trkpt>
      <trkpt lat="63.4332354" lon="10.3062315">
        <ele>389.8</ele>
        <time>2011-08-06T18:25:21Z</time>
      </trkpt>
      <trkpt lat="63.4332257" lon="10.3062424">
        <ele>389.6</ele>
        <time>2011-08-06T18:25:22Z</time>
      </trkpt>
      <trkpt lat="63.4331398" lon="10.3062616">
        <ele>388</ele>
        <time>2011-08-06T18:25:28Z</time>
      </trkpt>
      <trkpt lat="63.4330607" lon="10.3062525">
        <ele>387.8</ele>
        <time>2011-08-06T18:25:33Z</time>
      </trkpt>
      <trkpt lat="63.4330048" lon="10.3064291">
        <ele>388</ele>
        <time>2011-08-06T18:25:36Z</time>
      </trkpt>
      <trkpt lat="63.4329447" lon="10.3065844">
        <ele>386.4</ele>
        <time>2011-08-06T18:25:40Z</time>
      </trkpt>
      <trkpt lat="63.4328622" lon="10.3066583">
        <ele>384.2</ele>
        <time>2011-08-06T18:25:44Z</time>
      </trkpt>
      <trkpt lat="63.4327913" lon="10.3067557">
        <ele>383.6</ele>
        <time>2011-08-06T18:25:48Z</time>
      </trkpt>
      <trkpt lat="63.4327127" lon="10.3068324">
        <ele>378.6</ele>
        <time>2011-08-06T18:25:54Z</time>
      </trkpt>
      <trkpt lat="63.4326543" lon="10.30691">
        <ele>377.6</ele>
        <time>2011-08-06T18:25:59Z</time>
      </trkpt>
      <trkpt lat="63.4326461" lon="10.3069538">
        <ele>375.6</ele>
        <time>2011-08-06T18:26:01Z</time>
      </trkpt>
      <trkpt lat="63.4326342" lon="10.3069662">
        <ele>375.2</ele>
        <time>2011-08-06T18:26:02Z</time>
      </trkpt>
      <trkpt lat="63.4326195" lon="10.3069861">
        <ele>373.4</ele>
        <time>2011-08-06T18:26:03Z</time>
      </trkpt>
      <trkpt lat="63.4325371" lon="10.3069839">
        <ele>372.8</ele>
        <time>2011-08-06T18:26:07Z</time>
      </trkpt>
      <trkpt lat="63.4323977" lon="10.3069101">
        <ele>370</ele>
        <time>2011-08-06T18:26:13Z</time>
      </trkpt>
      <trkpt lat="63.4322884" lon="10.3068175">
        <ele>366.6</ele>
        <time>2011-08-06T18:26:18Z</time>
      </trkpt>
      <trkpt lat="63.4321797" lon="10.3066523">
        <ele>365</ele>
        <time>2011-08-06T18:26:23Z</time>
      </trkpt>
      <trkpt lat="63.432109" lon="10.3065655">
        <ele>363.4</ele>
        <time>2011-08-06T18:26:26Z</time>
      </trkpt>
      <trkpt lat="63.4320495" lon="10.3065852">
        <ele>363.4</ele>
        <time>2011-08-06T18:26:28Z</time>
      </trkpt>
      <trkpt lat="63.4319271" lon="10.3065731">
        <ele>363.6</ele>
        <time>2011-08-06T18:26:32Z</time>
      </trkpt>
      <trkpt lat="63.4318997" lon="10.3065433">
        <ele>362.8</ele>
        <time>2011-08-06T18:26:33Z</time>
      </trkpt>
      <trkpt lat="63.4318426" lon="10.3065372">
        <ele>364</ele>
        <time>2011-08-06T18:26:35Z</time>
      </trkpt>
      <trkpt lat="63.4317942" lon="10.306591">
        <ele>364.2</ele>
        <time>2011-08-06T18:26:37Z</time>
      </trkpt>
      <trkpt lat="63.4316972" lon="10.3066129">
        <ele>367.2</ele>
        <time>2011-08-06T18:26:42Z</time>
      </trkpt>
      <trkpt lat="63.4316198" lon="10.3065452">
        <ele>368.8</ele>
        <time>2011-08-06T18:26:46Z</time>
      </trkpt>
      <trkpt lat="63.431472" lon="10.3063574">
        <ele>367</ele>
        <time>2011-08-06T18:26:52Z</time>
      </trkpt>
      <trkpt lat="63.4313531" lon="10.3061038">
        <ele>366.2</ele>
        <time>2011-08-06T18:26:57Z</time>
      </trkpt>
      <trkpt lat="63.4312115" lon="10.3059309">
        <ele>368</ele>
        <time>2011-08-06T18:27:02Z</time>
      </trkpt>
      <trkpt lat="63.4311157" lon="10.305867">
        <ele>367.8</ele>
        <time>2011-08-06T18:27:06Z</time>
      </trkpt>
      <trkpt lat="63.4310065" lon="10.3058122">
        <ele>365.4</ele>
        <time>2011-08-06T18:27:10Z</time>
      </trkpt>
      <trkpt lat="63.4308925" lon="10.3055231">
        <ele>367</ele>
        <time>2011-08-06T18:27:16Z</time>
      </trkpt>
      <trkpt lat="63.4308219" lon="10.3052636">
        <ele>367.8</ele>
        <time>2011-08-06T18:27:21Z</time>
      </trkpt>
      <trkpt lat="63.4307483" lon="10.3051973">
        <ele>367.8</ele>
        <time>2011-08-06T18:27:24Z</time>
      </trkpt>
      <trkpt lat="63.4307232" lon="10.3052043">
        <ele>366.4</ele>
        <time>2011-08-06T18:27:25Z</time>
      </trkpt>
      <trkpt lat="63.4305729" lon="10.3052909">
        <ele>362.6</ele>
        <time>2011-08-06T18:27:30Z</time>
      </trkpt>
      <trkpt lat="63.430452" lon="10.3052571">
        <ele>363.8</ele>
        <time>2011-08-06T18:27:35Z</time>
      </trkpt>
      <trkpt lat="63.4303978" lon="10.3052334">
        <ele>361.2</ele>
        <time>2011-08-06T18:27:37Z</time>
      </trkpt>
      <trkpt lat="63.4303138" lon="10.3051701">
        <ele>358.4</ele>
        <time>2011-08-06T18:27:40Z</time>
      </trkpt>
      <trkpt lat="63.430173" lon="10.3051446">
        <ele>357.4</ele>
        <time>2011-08-06T18:27:44Z</time>
      </trkpt>
      <trkpt lat="63.4300369" lon="10.3051614">
        <ele>354.2</ele>
        <time>2011-08-06T18:27:48Z</time>
      </trkpt>
      <trkpt lat="63.4298686" lon="10.3051091">
        <ele>354</ele>
        <time>2011-08-06T18:27:53Z</time>
      </trkpt>
      <trkpt lat="63.4297704" lon="10.3050717">
        <ele>352.4</ele>
        <time>2011-08-06T18:27:57Z</time>
      </trkpt>
      <trkpt lat="63.4296288" lon="10.3051474">
        <ele>348.8</ele>
        <time>2011-08-06T18:28:01Z</time>
      </trkpt>
      <trkpt lat="63.4295769" lon="10.3052047">
        <ele>349.4</ele>
        <time>2011-08-06T18:28:03Z</time>
      </trkpt>
      <trkpt lat="63.4295505" lon="10.3052676">
        <ele>347.4</ele>
        <time>2011-08-06T18:28:05Z</time>
      </trkpt>
      <trkpt lat="63.4294506" lon="10.3054263">
        <ele>345.4</ele>
        <time>2011-08-06T18:28:09Z</time>
      </trkpt>
      <trkpt lat="63.4292953" lon="10.3055355">
        <ele>345.2</ele>
        <time>2011-08-06T18:28:14Z</time>
      </trkpt>
      <trkpt lat="63.4291488" lon="10.305674">
        <ele>346.8</ele>
        <time>2011-08-06T18:28:19Z</time>
      </trkpt>
      <trkpt lat="63.4289831" lon="10.3057876">
        <ele>344</ele>
        <time>2011-08-06T18:28:25Z</time>
      </trkpt>
      <trkpt lat="63.4289681" lon="10.3058142">
        <ele>343.8</ele>
        <time>2011-08-06T18:28:26Z</time>
      </trkpt>
      <trkpt lat="63.428871" lon="10.305812">
        <ele>344</ele>
        <time>2011-08-06T18:28:29Z</time>
      </trkpt>
      <trkpt lat="63.4287091" lon="10.3058916">
        <ele>348.4</ele>
        <time>2011-08-06T18:28:33Z</time>
      </trkpt>
      <trkpt lat="63.4286774" lon="10.3059066">
        <ele>349.2</ele>
        <time>2011-08-06T18:28:34Z</time>
      </trkpt>
      <trkpt lat="63.4285992" lon="10.3058554">
        <ele>345.2</ele>
        <time>2011-08-06T18:28:37Z</time>
      </trkpt>
      <trkpt lat="63.428578" lon="10.305845">
        <ele>344</ele>
        <time>2011-08-06T18:28:38Z</time>
      </trkpt>
      <trkpt lat="63.4285418" lon="10.3058162">
        <ele>340.8</ele>
        <time>2011-08-06T18:28:40Z</time>
      </trkpt>
      <trkpt lat="63.4284754" lon="10.3058124">
        <ele>339.8</ele>
        <time>2011-08-06T18:28:43Z</time>
      </trkpt>
      <trkpt lat="63.4283378" lon="10.3058321">
        <ele>339.2</ele>
        <time>2011-08-06T18:28:48Z</time>
      </trkpt>
      <trkpt lat="63.4281955" lon="10.3057005">
        <ele>337.2</ele>
        <time>2011-08-06T18:28:54Z</time>
      </trkpt>
      <trkpt lat="63.4281855" lon="10.3056476">
        <ele>337.2</ele>
        <time>2011-08-06T18:28:55Z</time>
      </trkpt>
      <trkpt lat="63.4280206" lon="10.3053471">
        <ele>341.6</ele>
        <time>2011-08-06T18:29:00Z</time>
      </trkpt>
      <trkpt lat="63.4279465" lon="10.3053034">
        <ele>343.4</ele>
        <time>2011-08-06T18:29:02Z</time>
      </trkpt>
      <trkpt lat="63.4278792" lon="10.3052388">
        <ele>343.4</ele>
        <time>2011-08-06T18:29:04Z</time>
      </trkpt>
      <trkpt lat="63.4277328" lon="10.3051475">
        <ele>344.6</ele>
        <time>2011-08-06T18:29:09Z</time>
      </trkpt>
      <trkpt lat="63.4275669" lon="10.3050604">
        <ele>340.4</ele>
        <time>2011-08-06T18:29:14Z</time>
      </trkpt>
      <trkpt lat="63.4274342" lon="10.3049092">
        <ele>337.6</ele>
        <time>2011-08-06T18:29:20Z</time>
      </trkpt>
      <trkpt lat="63.4273586" lon="10.304706">
        <ele>332.8</ele>
        <time>2011-08-06T18:29:24Z</time>
      </trkpt>
      <trkpt lat="63.4272804" lon="10.3045165">
        <ele>328.6</ele>
        <time>2011-08-06T18:29:28Z</time>
      </trkpt>
      <trkpt lat="63.4272543" lon="10.3045015">
        <ele>327.2</ele>
        <time>2011-08-06T18:29:29Z</time>
      </trkpt>
      <trkpt lat="63.427153" lon="10.3042944">
        <ele>323.8</ele>
        <time>2011-08-06T18:29:34Z</time>
      </trkpt>
      <trkpt lat="63.4270856" lon="10.3041013">
        <ele>321.6</ele>
        <time>2011-08-06T18:29:38Z</time>
      </trkpt>
      <trkpt lat="63.4270717" lon="10.3040461">
        <ele>321.6</ele>
        <time>2011-08-06T18:29:39Z</time>
      </trkpt>
      <trkpt lat="63.4270185" lon="10.3039157">
        <ele>322</ele>
        <time>2011-08-06T18:29:43Z</time>
      </trkpt>
      <trkpt lat="63.4269603" lon="10.3036107">
        <ele>320.6</ele>
        <time>2011-08-06T18:29:47Z</time>
      </trkpt>
      <trkpt lat="63.4269157" lon="10.3032638">
        <ele>322.4</ele>
        <time>2011-08-06T18:29:52Z</time>
      </trkpt>
      <trkpt lat="63.4268506" lon="10.3029418">
        <ele>321.2</ele>
        <time>2011-08-06T18:29:57Z</time>
      </trkpt>
      <trkpt lat="63.4267636" lon="10.3027709">
        <ele>318</ele>
        <time>2011-08-06T18:30:01Z</time>
      </trkpt>
      <trkpt lat="63.4267393" lon="10.3027466">
        <ele>317</ele>
        <time>2011-08-06T18:30:02Z</time>
      </trkpt>
      <trkpt lat="63.4267245" lon="10.3027037">
        <ele>316</ele>
        <time>2011-08-06T18:30:03Z</time>
      </trkpt>
      <trkpt lat="63.4266971" lon="10.3026073">
        <ele>315</ele>
        <time>2011-08-06T18:30:06Z</time>
      </trkpt>
      <trkpt lat="63.4266391" lon="10.302502">
        <ele>311.8</ele>
        <time>2011-08-06T18:30:09Z</time>
      </trkpt>
      <trkpt lat="63.4265803" lon="10.302432">
        <ele>311.6</ele>
        <time>2011-08-06T18:30:11Z</time>
      </trkpt>
      <trkpt lat="63.4264702" lon="10.3023187">
        <ele>307.4</ele>
        <time>2011-08-06T18:30:15Z</time>
      </trkpt>
      <trkpt lat="63.4264486" lon="10.3022681">
        <ele>307.8</ele>
        <time>2011-08-06T18:30:16Z</time>
      </trkpt>
      <trkpt lat="63.4263782" lon="10.3020227">
        <ele>305.2</ele>
        <time>2011-08-06T18:30:21Z</time>
      </trkpt>
      <trkpt lat="63.4262738" lon="10.3019555">
        <ele>302.8</ele>
        <time>2011-08-06T18:30:25Z</time>
      </trkpt>
      <trkpt lat="63.426238" lon="10.3018223">
        <ele>300.2</ele>
        <time>2011-08-06T18:30:29Z</time>
      </trkpt>
      <trkpt lat="63.4261787" lon="10.3015763">
        <ele>298.2</ele>
        <time>2011-08-06T18:30:34Z</time>
      </trkpt>
      <trkpt lat="63.4261335" lon="10.3014464">
        <ele>295.2</ele>
        <time>2011-08-06T18:30:37Z</time>
      </trkpt>
      <trkpt lat="63.4260656" lon="10.3013186">
        <ele>293.6</ele>
        <time>2011-08-06T18:30:40Z</time>
      </trkpt>
      <trkpt lat="63.4259791" lon="10.3010832">
        <ele>289.2</ele>
        <time>2011-08-06T18:30:45Z</time>
      </trkpt>
      <trkpt lat="63.4259833" lon="10.3010164">
        <ele>288.8</ele>
        <time>2011-08-06T18:30:46Z</time>
      </trkpt>
      <trkpt lat="63.4259858" lon="10.3007549">
        <ele>290.8</ele>
        <time>2011-08-06T18:30:49Z</time>
      </trkpt>
      <trkpt lat="63.425987" lon="10.3007047">
        <ele>290.8</ele>
        <time>2011-08-06T18:30:50Z</time>
      </trkpt>
      <trkpt lat="63.4259802" lon="10.3005867">
        <ele>291</ele>
        <time>2011-08-06T18:30:52Z</time>
      </trkpt>
      <trkpt lat="63.425954" lon="10.3005257">
        <ele>291.4</ele>
        <time>2011-08-06T18:30:53Z</time>
      </trkpt>
      <trkpt lat="63.4258045" lon="10.3003585">
        <ele>294</ele>
        <time>2011-08-06T18:30:58Z</time>
      </trkpt>
      <trkpt lat="63.4257025" lon="10.3003186">
        <ele>294.6</ele>
        <time>2011-08-06T18:31:02Z</time>
      </trkpt>
      <trkpt lat="63.4256772" lon="10.3003319">
        <ele>292.6</ele>
        <time>2011-08-06T18:31:05Z</time>
      </trkpt>
      <trkpt lat="63.4256661" lon="10.3003468">
        <ele>292.6</ele>
        <time>2011-08-06T18:31:06Z</time>
      </trkpt>
      <trkpt lat="63.4256204" lon="10.3003931">
        <ele>292</ele>
        <time>2011-08-06T18:31:12Z</time>
      </trkpt>
      <trkpt lat="63.4255968" lon="10.3004458">
        <ele>291.2</ele>
        <time>2011-08-06T18:31:16Z</time>
      </trkpt>
      <trkpt lat="63.4255906" lon="10.3004833">
        <ele>291.2</ele>
        <time>2011-08-06T18:31:18Z</time>
      </trkpt>
      <trkpt lat="63.4255743" lon="10.3005584">
        <ele>290.6</ele>
        <time>2011-08-06T18:31:21Z</time>
      </trkpt>
      <trkpt lat="63.4255672" lon="10.3005838">
        <ele>290</ele>
        <time>2011-08-06T18:31:22Z</time>
      </trkpt>
      <trkpt lat="63.4255581" lon="10.3005993">
        <ele>288.6</ele>
        <time>2011-08-06T18:31:23Z</time>
      </trkpt>
      <trkpt lat="63.4255287" lon="10.3006794">
        <ele>285</ele>
        <time>2011-08-06T18:31:28Z</time>
      </trkpt>
      <trkpt lat="63.4255212" lon="10.3006957">
        <ele>284.2</ele>
        <time>2011-08-06T18:31:29Z</time>
      </trkpt>
      <trkpt lat="63.4254497" lon="10.3008767">
        <ele>281.2</ele>
        <time>2011-08-06T18:31:39Z</time>
      </trkpt>
      <trkpt lat="63.4253825" lon="10.3010329">
        <ele>283.4</ele>
        <time>2011-08-06T18:31:49Z</time>
      </trkpt>
      <trkpt lat="63.4253239" lon="10.3012209">
        <ele>292.4</ele>
        <time>2011-08-06T18:31:59Z</time>
      </trkpt>
      <trkpt lat="63.4252722" lon="10.3013088">
        <ele>289.2</ele>
        <time>2011-08-06T18:32:06Z</time>
      </trkpt>
      <trkpt lat="63.4251954" lon="10.3014256">
        <ele>288</ele>
        <time>2011-08-06T18:32:14Z</time>
      </trkpt>
      <trkpt lat="63.4251802" lon="10.301465">
        <ele>285.8</ele>
        <time>2011-08-06T18:32:17Z</time>
      </trkpt>
      <trkpt lat="63.4251475" lon="10.3015152">
        <ele>285</ele>
        <time>2011-08-06T18:32:20Z</time>
      </trkpt>
      <trkpt lat="63.425058" lon="10.301694">
        <ele>283.6</ele>
        <time>2011-08-06T18:32:26Z</time>
      </trkpt>
      <trkpt lat="63.4249591" lon="10.3019374">
        <ele>287.2</ele>
        <time>2011-08-06T18:32:32Z</time>
      </trkpt>
      <trkpt lat="63.4248506" lon="10.3020917">
        <ele>285.4</ele>
        <time>2011-08-06T18:32:38Z</time>
      </trkpt>
      <trkpt lat="63.4247572" lon="10.302286">
        <ele>285</ele>
        <time>2011-08-06T18:32:43Z</time>
      </trkpt>
      <trkpt lat="63.4246354" lon="10.3026381">
        <ele>285.2</ele>
        <time>2011-08-06T18:32:50Z</time>
      </trkpt>
      <trkpt lat="63.4245273" lon="10.3028828">
        <ele>285.2</ele>
        <time>2011-08-06T18:32:55Z</time>
      </trkpt>
      <trkpt lat="63.4244577" lon="10.3031525">
        <ele>286.6</ele>
        <time>2011-08-06T18:33:00Z</time>
      </trkpt>
      <trkpt lat="63.4243856" lon="10.3034556">
        <ele>288.4</ele>
        <time>2011-08-06T18:33:06Z</time>
      </trkpt>
      <trkpt lat="63.4243742" lon="10.3034322">
        <ele>287.8</ele>
        <time>2011-08-06T18:33:09Z</time>
      </trkpt>
      <trkpt lat="63.4243675" lon="10.3032625">
        <ele>285.4</ele>
        <time>2011-08-06T18:33:15Z</time>
      </trkpt>
      <trkpt lat="63.424337" lon="10.3032693">
        <ele>282.8</ele>
        <time>2011-08-06T18:33:16Z</time>
      </trkpt>
      <trkpt lat="63.4243018" lon="10.303339">
        <ele>279</ele>
        <time>2011-08-06T18:33:18Z</time>
      </trkpt>
      <trkpt lat="63.4242393" lon="10.3034038">
        <ele>272.6</ele>
        <time>2011-08-06T18:33:24Z</time>
      </trkpt>
      <trkpt lat="63.424177" lon="10.3033985">
        <ele>269</ele>
        <time>2011-08-06T18:33:35Z</time>
      </trkpt>
      <trkpt lat="63.4241018" lon="10.3034663">
        <ele>272.8</ele>
        <time>2011-08-06T18:33:43Z</time>
      </trkpt>
      <trkpt lat="63.4241009" lon="10.3035035">
        <ele>272.2</ele>
        <time>2011-08-06T18:33:50Z</time>
      </trkpt>
      <trkpt lat="63.4240504" lon="10.3034795">
        <ele>271</ele>
        <time>2011-08-06T18:33:55Z</time>
      </trkpt>
      <trkpt lat="63.4240304" lon="10.3034694">
        <ele>271.2</ele>
        <time>2011-08-06T18:33:57Z</time>
      </trkpt>
      <trkpt lat="63.4239915" lon="10.303463">
        <ele>272.2</ele>
        <time>2011-08-06T18:33:59Z</time>
      </trkpt>
      <trkpt lat="63.4239091" lon="10.3035167">
        <ele>271</ele>
        <time>2011-08-06T18:34:04Z</time>
      </trkpt>
      <trkpt lat="63.4238451" lon="10.303523">
        <ele>272</ele>
        <time>2011-08-06T18:34:10Z</time>
      </trkpt>
      <trkpt lat="63.4238386" lon="10.3035017">
        <ele>272.2</ele>
        <time>2011-08-06T18:34:12Z</time>
      </trkpt>
      <trkpt lat="63.4237898" lon="10.3034914">
        <ele>271.4</ele>
        <time>2011-08-06T18:34:15Z</time>
      </trkpt>
      <trkpt lat="63.4236958" lon="10.3034943">
        <ele>271.6</ele>
        <time>2011-08-06T18:34:21Z</time>
      </trkpt>
      <trkpt lat="63.4236114" lon="10.3035477">
        <ele>271.6</ele>
        <time>2011-08-06T18:34:27Z</time>
      </trkpt>
      <trkpt lat="63.4235844" lon="10.3035552">
        <ele>272.6</ele>
        <time>2011-08-06T18:34:29Z</time>
      </trkpt>
      <trkpt lat="63.4235207" lon="10.3036169">
        <ele>271.6</ele>
        <time>2011-08-06T18:34:32Z</time>
      </trkpt>
      <trkpt lat="63.4234517" lon="10.3036545">
        <ele>271.4</ele>
        <time>2011-08-06T18:34:35Z</time>
      </trkpt>
      <trkpt lat="63.4233739" lon="10.3036666">
        <ele>270</ele>
        <time>2011-08-06T18:34:38Z</time>
      </trkpt>
      <trkpt lat="63.4232504" lon="10.303635">
        <ele>268.2</ele>
        <time>2011-08-06T18:34:43Z</time>
      </trkpt>
      <trkpt lat="63.4231147" lon="10.3037291">
        <ele>265.4</ele>
        <time>2011-08-06T18:34:49Z</time>
      </trkpt>
      <trkpt lat="63.4230127" lon="10.3038304">
        <ele>261.2</ele>
        <time>2011-08-06T18:34:54Z</time>
      </trkpt>
      <trkpt lat="63.4229428" lon="10.303912">
        <ele>258.4</ele>
        <time>2011-08-06T18:34:59Z</time>
      </trkpt>
      <trkpt lat="63.4229263" lon="10.3039409">
        <ele>257.6</ele>
        <time>2011-08-06T18:35:01Z</time>
      </trkpt>
      <trkpt lat="63.4228852" lon="10.303971">
        <ele>256.4</ele>
        <time>2011-08-06T18:35:04Z</time>
      </trkpt>
      <trkpt lat="63.4227888" lon="10.304148">
        <ele>253.2</ele>
        <time>2011-08-06T18:35:09Z</time>
      </trkpt>
      <trkpt lat="63.4227166" lon="10.3043804">
        <ele>251.4</ele>
        <time>2011-08-06T18:35:14Z</time>
      </trkpt>
      <trkpt lat="63.4226112" lon="10.3045593">
        <ele>251.4</ele>
        <time>2011-08-06T18:35:18Z</time>
      </trkpt>
      <trkpt lat="63.4225208" lon="10.3047929">
        <ele>254.2</ele>
        <time>2011-08-06T18:35:23Z</time>
      </trkpt>
      <trkpt lat="63.4224209" lon="10.3050598">
        <ele>255.4</ele>
        <time>2011-08-06T18:35:28Z</time>
      </trkpt>
      <trkpt lat="63.4223167" lon="10.3053321">
        <ele>255.4</ele>
        <time>2011-08-06T18:35:33Z</time>
      </trkpt>
      <trkpt lat="63.4222122" lon="10.3055908">
        <ele>253.6</ele>
        <time>2011-08-06T18:35:38Z</time>
      </trkpt>
      <trkpt lat="63.422116" lon="10.3058254">
        <ele>251.6</ele>
        <time>2011-08-06T18:35:43Z</time>
      </trkpt>
      <trkpt lat="63.4220235" lon="10.3059793">
        <ele>249</ele>
        <time>2011-08-06T18:35:47Z</time>
      </trkpt>
      <trkpt lat="63.4219122" lon="10.306188">
        <ele>247</ele>
        <time>2011-08-06T18:35:51Z</time>
      </trkpt>
      <trkpt lat="63.4217734" lon="10.3064151">
        <ele>244</ele>
        <time>2011-08-06T18:35:56Z</time>
      </trkpt>
      <trkpt lat="63.4216229" lon="10.3067543">
        <ele>239.2</ele>
        <time>2011-08-06T18:36:02Z</time>
      </trkpt>
      <trkpt lat="63.4214621" lon="10.3070516">
        <ele>238.4</ele>
        <time>2011-08-06T18:36:08Z</time>
      </trkpt>
      <trkpt lat="63.4213517" lon="10.3073786">
        <ele>239.4</ele>
        <time>2011-08-06T18:36:13Z</time>
      </trkpt>
      <trkpt lat="63.4212768" lon="10.3077228">
        <ele>241</ele>
        <time>2011-08-06T18:36:18Z</time>
      </trkpt>
      <trkpt lat="63.4211913" lon="10.3080452">
        <ele>241.4</ele>
        <time>2011-08-06T18:36:23Z</time>
      </trkpt>
      <trkpt lat="63.4210673" lon="10.3084565">
        <ele>237.8</ele>
        <time>2011-08-06T18:36:29Z</time>
      </trkpt>
      <trkpt lat="63.4209273" lon="10.3087704">
        <ele>234.2</ele>
        <time>2011-08-06T18:36:34Z</time>
      </trkpt>
      <trkpt lat="63.4207882" lon="10.3091206">
        <ele>232</ele>
        <time>2011-08-06T18:36:40Z</time>
      </trkpt>
      <trkpt lat="63.4206441" lon="10.3092131">
        <ele>228.8</ele>
        <time>2011-08-06T18:36:44Z</time>
      </trkpt>
      <trkpt lat="63.4204974" lon="10.3092837">
        <ele>227.2</ele>
        <time>2011-08-06T18:36:49Z</time>
      </trkpt>
      <trkpt lat="63.4203737" lon="10.3095172">
        <ele>226.4</ele>
        <time>2011-08-06T18:36:54Z</time>
      </trkpt>
      <trkpt lat="63.4203727" lon="10.3096115">
        <ele>227</ele>
        <time>2011-08-06T18:36:55Z</time>
      </trkpt>
      <trkpt lat="63.4203662" lon="10.3098446">
        <ele>225.8</ele>
        <time>2011-08-06T18:36:58Z</time>
      </trkpt>
      <trkpt lat="63.420366" lon="10.3099391">
        <ele>225</ele>
        <time>2011-08-06T18:36:59Z</time>
      </trkpt>
      <trkpt lat="63.4203612" lon="10.3102833">
        <ele>223.6</ele>
        <time>2011-08-06T18:37:03Z</time>
      </trkpt>
      <trkpt lat="63.4203458" lon="10.310729">
        <ele>220.8</ele>
        <time>2011-08-06T18:37:08Z</time>
      </trkpt>
      <trkpt lat="63.4203427" lon="10.3108036">
        <ele>220.6</ele>
        <time>2011-08-06T18:37:09Z</time>
      </trkpt>
      <trkpt lat="63.4203728" lon="10.3112333">
        <ele>223</ele>
        <time>2011-08-06T18:37:14Z</time>
      </trkpt>
      <trkpt lat="63.4203753" lon="10.3113142">
        <ele>222.2</ele>
        <time>2011-08-06T18:37:15Z</time>
      </trkpt>
      <trkpt lat="63.4203947" lon="10.3117718">
        <ele>220</ele>
        <time>2011-08-06T18:37:20Z</time>
      </trkpt>
      <trkpt lat="63.4204159" lon="10.3118594">
        <ele>220.2</ele>
        <time>2011-08-06T18:37:21Z</time>
      </trkpt>
      <trkpt lat="63.4204287" lon="10.3120365">
        <ele>215.4</ele>
        <time>2011-08-06T18:37:24Z</time>
      </trkpt>
      <trkpt lat="63.4204963" lon="10.3124109">
        <ele>217.4</ele>
        <time>2011-08-06T18:37:29Z</time>
      </trkpt>
      <trkpt lat="63.4205153" lon="10.312702">
        <ele>217.4</ele>
        <time>2011-08-06T18:37:33Z</time>
      </trkpt>
      <trkpt lat="63.4204942" lon="10.3130808">
        <ele>220</ele>
        <time>2011-08-06T18:37:38Z</time>
      </trkpt>
      <trkpt lat="63.4204971" lon="10.3135023">
        <ele>231</ele>
        <time>2011-08-06T18:37:43Z</time>
      </trkpt>
      <trkpt lat="63.4204934" lon="10.313604">
        <ele>232.4</ele>
        <time>2011-08-06T18:37:44Z</time>
      </trkpt>
      <trkpt lat="63.4204296" lon="10.3138753">
        <ele>238.8</ele>
        <time>2011-08-06T18:37:48Z</time>
      </trkpt>
      <trkpt lat="63.420349" lon="10.3142561">
        <ele>240.6</ele>
        <time>2011-08-06T18:37:53Z</time>
      </trkpt>
      <trkpt lat="63.4203525" lon="10.3143302">
        <ele>237.4</ele>
        <time>2011-08-06T18:37:54Z</time>
      </trkpt>
      <trkpt lat="63.4203452" lon="10.3147396">
        <ele>238.4</ele>
        <time>2011-08-06T18:37:59Z</time>
      </trkpt>
      <trkpt lat="63.4203245" lon="10.3149005">
        <ele>235.6</ele>
        <time>2011-08-06T18:38:01Z</time>
      </trkpt>
      <trkpt lat="63.4202593" lon="10.3153216">
        <ele>226.2</ele>
        <time>2011-08-06T18:38:07Z</time>
      </trkpt>
      <trkpt lat="63.4202066" lon="10.315709">
        <ele>221.4</ele>
        <time>2011-08-06T18:38:12Z</time>
      </trkpt>
      <trkpt lat="63.420198" lon="10.3157874">
        <ele>220.6</ele>
        <time>2011-08-06T18:38:13Z</time>
      </trkpt>
      <trkpt lat="63.4201505" lon="10.3162017">
        <ele>225.2</ele>
        <time>2011-08-06T18:38:18Z</time>
      </trkpt>
      <trkpt lat="63.4201388" lon="10.3162857">
        <ele>224.4</ele>
        <time>2011-08-06T18:38:19Z</time>
      </trkpt>
      <trkpt lat="63.4201148" lon="10.3166945">
        <ele>215.8</ele>
        <time>2011-08-06T18:38:24Z</time>
      </trkpt>
      <trkpt lat="63.4201431" lon="10.3168124">
        <ele>213.2</ele>
        <time>2011-08-06T18:38:26Z</time>
      </trkpt>
      <trkpt lat="63.4201849" lon="10.3170134">
        <ele>210.6</ele>
        <time>2011-08-06T18:38:29Z</time>
      </trkpt>
      <trkpt lat="63.4201774" lon="10.3170935">
        <ele>209.4</ele>
        <time>2011-08-06T18:38:30Z</time>
      </trkpt>
      <trkpt lat="63.4201557" lon="10.3172522">
        <ele>207.4</ele>
        <time>2011-08-06T18:38:32Z</time>
      </trkpt>
      <trkpt lat="63.4201154" lon="10.3173846">
        <ele>206</ele>
        <time>2011-08-06T18:38:34Z</time>
      </trkpt>
      <trkpt lat="63.4200555" lon="10.3175629">
        <ele>207.6</ele>
        <time>2011-08-06T18:38:37Z</time>
      </trkpt>
      <trkpt lat="63.4200035" lon="10.3178316">
        <ele>208.6</ele>
        <time>2011-08-06T18:38:42Z</time>
      </trkpt>
      <trkpt lat="63.4199771" lon="10.3180008">
        <ele>205.8</ele>
        <time>2011-08-06T18:38:45Z</time>
      </trkpt>
      <trkpt lat="63.4199819" lon="10.3180785">
        <ele>206</ele>
        <time>2011-08-06T18:38:46Z</time>
      </trkpt>
      <trkpt lat="63.4200145" lon="10.3185236">
        <ele>201.4</ele>
        <time>2011-08-06T18:38:52Z</time>
      </trkpt>
      <trkpt lat="63.4200222" lon="10.3189396">
        <ele>196</ele>
        <time>2011-08-06T18:38:57Z</time>
      </trkpt>
      <trkpt lat="63.4200821" lon="10.319338">
        <ele>194.6</ele>
        <time>2011-08-06T18:39:02Z</time>
      </trkpt>
      <trkpt lat="63.4201085" lon="10.3193963">
        <ele>195</ele>
        <time>2011-08-06T18:39:03Z</time>
      </trkpt>
      <trkpt lat="63.4202171" lon="10.3196849">
        <ele>194.8</ele>
        <time>2011-08-06T18:39:08Z</time>
      </trkpt>
      <trkpt lat="63.4202644" lon="10.3198932">
        <ele>194</ele>
        <time>2011-08-06T18:39:12Z</time>
      </trkpt>
      <trkpt lat="63.4203012" lon="10.3200965">
        <ele>194.6</ele>
        <time>2011-08-06T18:39:16Z</time>
      </trkpt>
      <trkpt lat="63.4203275" lon="10.3202057">
        <ele>194.6</ele>
        <time>2011-08-06T18:39:18Z</time>
      </trkpt>
      <trkpt lat="63.4203551" lon="10.3204158">
        <ele>193.8</ele>
        <time>2011-08-06T18:39:21Z</time>
      </trkpt>
      <trkpt lat="63.4203924" lon="10.3204733">
        <ele>195.8</ele>
        <time>2011-08-06T18:39:22Z</time>
      </trkpt>
      <trkpt lat="63.4204503" lon="10.3206157">
        <ele>198.4</ele>
        <time>2011-08-06T18:39:25Z</time>
      </trkpt>
      <trkpt lat="63.4204648" lon="10.3206484">
        <ele>199.4</ele>
        <time>2011-08-06T18:39:26Z</time>
      </trkpt>
      <trkpt lat="63.4204771" lon="10.3207428">
        <ele>200.4</ele>
        <time>2011-08-06T18:39:28Z</time>
      </trkpt>
      <trkpt lat="63.4204963" lon="10.3208756">
        <ele>203.6</ele>
        <time>2011-08-06T18:39:30Z</time>
      </trkpt>
      <trkpt lat="63.4204811" lon="10.3211145">
        <ele>204.8</ele>
        <time>2011-08-06T18:39:33Z</time>
      </trkpt>
      <trkpt lat="63.4204478" lon="10.3213667">
        <ele>202</ele>
        <time>2011-08-06T18:39:36Z</time>
      </trkpt>
      <trkpt lat="63.4204421" lon="10.3214547">
        <ele>200.4</ele>
        <time>2011-08-06T18:39:37Z</time>
      </trkpt>
      <trkpt lat="63.4203887" lon="10.3217555">
        <ele>196.2</ele>
        <time>2011-08-06T18:39:42Z</time>
      </trkpt>
      <trkpt lat="63.4202936" lon="10.3221027">
        <ele>196</ele>
        <time>2011-08-06T18:39:47Z</time>
      </trkpt>
      <trkpt lat="63.4202151" lon="10.3222801">
        <ele>194.4</ele>
        <time>2011-08-06T18:39:51Z</time>
      </trkpt>
      <trkpt lat="63.420198" lon="10.3222916">
        <ele>194</ele>
        <time>2011-08-06T18:39:52Z</time>
      </trkpt>
      <trkpt lat="63.4200785" lon="10.3223379">
        <ele>191.2</ele>
        <time>2011-08-06T18:39:56Z</time>
      </trkpt>
      <trkpt lat="63.4199005" lon="10.3224896">
        <ele>190</ele>
        <time>2011-08-06T18:40:02Z</time>
      </trkpt>
      <trkpt lat="63.4197864" lon="10.3227523">
        <ele>192.2</ele>
        <time>2011-08-06T18:40:07Z</time>
      </trkpt>
      <trkpt lat="63.4196924" lon="10.3231238">
        <ele>201.8</ele>
        <time>2011-08-06T18:40:13Z</time>
      </trkpt>
      <trkpt lat="63.4196274" lon="10.3234591">
        <ele>203.2</ele>
        <time>2011-08-06T18:40:18Z</time>
      </trkpt>
      <trkpt lat="63.4196182" lon="10.3237585">
        <ele>203.6</ele>
        <time>2011-08-06T18:40:22Z</time>
      </trkpt>
      <trkpt lat="63.4196002" lon="10.3238224">
        <ele>204.2</ele>
        <time>2011-08-06T18:40:23Z</time>
      </trkpt>
      <trkpt lat="63.4195225" lon="10.3240616">
        <ele>202</ele>
        <time>2011-08-06T18:40:27Z</time>
      </trkpt>
      <trkpt lat="63.4195284" lon="10.3241272">
        <ele>203.2</ele>
        <time>2011-08-06T18:40:28Z</time>
      </trkpt>
      <trkpt lat="63.4195406" lon="10.3243733">
        <ele>201</ele>
        <time>2011-08-06T18:40:32Z</time>
      </trkpt>
      <trkpt lat="63.4195532" lon="10.3246366">
        <ele>196.4</ele>
        <time>2011-08-06T18:40:36Z</time>
      </trkpt>
      <trkpt lat="63.4195295" lon="10.3249595">
        <ele>194.8</ele>
        <time>2011-08-06T18:40:41Z</time>
      </trkpt>
      <trkpt lat="63.4194849" lon="10.3253638">
        <ele>189.8</ele>
        <time>2011-08-06T18:40:47Z</time>
      </trkpt>
      <trkpt lat="63.4195055" lon="10.3256943">
        <ele>185.6</ele>
        <time>2011-08-06T18:40:52Z</time>
      </trkpt>
      <trkpt lat="63.4195109" lon="10.3258662">
        <ele>184.4</ele>
        <time>2011-08-06T18:40:55Z</time>
      </trkpt>
      <trkpt lat="63.4195035" lon="10.3259122">
        <ele>183.6</ele>
        <time>2011-08-06T18:40:56Z</time>
      </trkpt>
      <trkpt lat="63.4194917" lon="10.3259528">
        <ele>183.6</ele>
        <time>2011-08-06T18:40:57Z</time>
      </trkpt>
      <trkpt lat="63.4194472" lon="10.3260471">
        <ele>186</ele>
        <time>2011-08-06T18:41:00Z</time>
      </trkpt>
      <trkpt lat="63.4193954" lon="10.3261036">
        <ele>188.4</ele>
        <time>2011-08-06T18:41:02Z</time>
      </trkpt>
      <trkpt lat="63.4193005" lon="10.3262071">
        <ele>191.2</ele>
        <time>2011-08-06T18:41:06Z</time>
      </trkpt>
      <trkpt lat="63.4191976" lon="10.3262364">
        <ele>195.2</ele>
        <time>2011-08-06T18:41:10Z</time>
      </trkpt>
      <trkpt lat="63.4190741" lon="10.3262907">
        <ele>203.8</ele>
        <time>2011-08-06T18:41:15Z</time>
      </trkpt>
      <trkpt lat="63.4189338" lon="10.3263253">
        <ele>211.2</ele>
        <time>2011-08-06T18:41:20Z</time>
      </trkpt>
      <trkpt lat="63.4188881" lon="10.3263729">
        <ele>213</ele>
        <time>2011-08-06T18:41:22Z</time>
      </trkpt>
      <trkpt lat="63.4188482" lon="10.3264522">
        <ele>213.6</ele>
        <time>2011-08-06T18:41:24Z</time>
      </trkpt>
      <trkpt lat="63.418807" lon="10.3265465">
        <ele>215.6</ele>
        <time>2011-08-06T18:41:26Z</time>
      </trkpt>
      <trkpt lat="63.4187229" lon="10.3266276">
        <ele>214.6</ele>
        <time>2011-08-06T18:41:29Z</time>
      </trkpt>
      <trkpt lat="63.4187103" lon="10.3266769">
        <ele>215</ele>
        <time>2011-08-06T18:41:30Z</time>
      </trkpt>
      <trkpt lat="63.4187016" lon="10.3268487">
        <ele>218</ele>
        <time>2011-08-06T18:41:33Z</time>
      </trkpt>
      <trkpt lat="63.4186046" lon="10.3270604">
        <ele>216.4</ele>
        <time>2011-08-06T18:41:38Z</time>
      </trkpt>
      <trkpt lat="63.4184629" lon="10.327238">
        <ele>209</ele>
        <time>2011-08-06T18:41:43Z</time>
      </trkpt>
      <trkpt lat="63.4183876" lon="10.3275447">
        <ele>203</ele>
        <time>2011-08-06T18:41:47Z</time>
      </trkpt>
      <trkpt lat="63.4183164" lon="10.3278001">
        <ele>201.6</ele>
        <time>2011-08-06T18:41:51Z</time>
      </trkpt>
      <trkpt lat="63.4182954" lon="10.3278612">
        <ele>201.6</ele>
        <time>2011-08-06T18:41:52Z</time>
      </trkpt>
      <trkpt lat="63.4182473" lon="10.3280502">
        <ele>199.2</ele>
        <time>2011-08-06T18:41:55Z</time>
      </trkpt>
      <trkpt lat="63.4181898" lon="10.3282647">
        <ele>191.2</ele>
        <time>2011-08-06T18:41:59Z</time>
      </trkpt>
      <trkpt lat="63.4181281" lon="10.3285544">
        <ele>184.6</ele>
        <time>2011-08-06T18:42:03Z</time>
      </trkpt>
      <trkpt lat="63.4180878" lon="10.3288729">
        <ele>178.4</ele>
        <time>2011-08-06T18:42:07Z</time>
      </trkpt>
      <trkpt lat="63.4180908" lon="10.3292838">
        <ele>177.6</ele>
        <time>2011-08-06T18:42:12Z</time>
      </trkpt>
      <trkpt lat="63.4180557" lon="10.3295928">
        <ele>178.6</ele>
        <time>2011-08-06T18:42:16Z</time>
      </trkpt>
      <trkpt lat="63.4179671" lon="10.3298176">
        <ele>179.6</ele>
        <time>2011-08-06T18:42:20Z</time>
      </trkpt>
      <trkpt lat="63.4179572" lon="10.3298772">
        <ele>179.8</ele>
        <time>2011-08-06T18:42:21Z</time>
      </trkpt>
      <trkpt lat="63.4178938" lon="10.3300836">
        <ele>178.6</ele>
        <time>2011-08-06T18:42:24Z</time>
      </trkpt>
      <trkpt lat="63.4178241" lon="10.3303824">
        <ele>175.8</ele>
        <time>2011-08-06T18:42:28Z</time>
      </trkpt>
      <trkpt lat="63.4178177" lon="10.3304632">
        <ele>176</ele>
        <time>2011-08-06T18:42:29Z</time>
      </trkpt>
      <trkpt lat="63.4177938" lon="10.3308262">
        <ele>180.4</ele>
        <time>2011-08-06T18:42:34Z</time>
      </trkpt>
      <trkpt lat="63.4176878" lon="10.3310318">
        <ele>176.6</ele>
        <time>2011-08-06T18:42:38Z</time>
      </trkpt>
      <trkpt lat="63.4176682" lon="10.3311437">
        <ele>175.2</ele>
        <time>2011-08-06T18:42:40Z</time>
      </trkpt>
      <trkpt lat="63.4176823" lon="10.3312729">
        <ele>174.2</ele>
        <time>2011-08-06T18:42:42Z</time>
      </trkpt>
      <trkpt lat="63.4176904" lon="10.3315444">
        <ele>168.2</ele>
        <time>2011-08-06T18:42:46Z</time>
      </trkpt>
      <trkpt lat="63.4176671" lon="10.3316841">
        <ele>165.4</ele>
        <time>2011-08-06T18:42:48Z</time>
      </trkpt>
      <trkpt lat="63.4176555" lon="10.3318308">
        <ele>163.8</ele>
        <time>2011-08-06T18:42:50Z</time>
      </trkpt>
      <trkpt lat="63.4176168" lon="10.332176">
        <ele>161.2</ele>
        <time>2011-08-06T18:42:56Z</time>
      </trkpt>
      <trkpt lat="63.4175968" lon="10.3324925">
        <ele>158.2</ele>
        <time>2011-08-06T18:43:01Z</time>
      </trkpt>
      <trkpt lat="63.4175747" lon="10.3327643">
        <ele>156.2</ele>
        <time>2011-08-06T18:43:05Z</time>
      </trkpt>
      <trkpt lat="63.4175894" lon="10.3331347">
        <ele>156.8</ele>
        <time>2011-08-06T18:43:10Z</time>
      </trkpt>
      <trkpt lat="63.4175993" lon="10.3334806">
        <ele>160.8</ele>
        <time>2011-08-06T18:43:15Z</time>
      </trkpt>
      <trkpt lat="63.4175676" lon="10.3337569">
        <ele>163.6</ele>
        <time>2011-08-06T18:43:19Z</time>
      </trkpt>
      <trkpt lat="63.4175342" lon="10.3340126">
        <ele>165.6</ele>
        <time>2011-08-06T18:43:23Z</time>
      </trkpt>
      <trkpt lat="63.4175451" lon="10.3343507">
        <ele>168.4</ele>
        <time>2011-08-06T18:43:28Z</time>
      </trkpt>
      <trkpt lat="63.4175876" lon="10.3346132">
        <ele>168.8</ele>
        <time>2011-08-06T18:43:32Z</time>
      </trkpt>
      <trkpt lat="63.4176186" lon="10.3350022">
        <ele>169.8</ele>
        <time>2011-08-06T18:43:37Z</time>
      </trkpt>
      <trkpt lat="63.4176282" lon="10.3353535">
        <ele>169</ele>
        <time>2011-08-06T18:43:42Z</time>
      </trkpt>
      <trkpt lat="63.417635" lon="10.3356836">
        <ele>168.6</ele>
        <time>2011-08-06T18:43:47Z</time>
      </trkpt>
      <trkpt lat="63.41762" lon="10.3360432">
        <ele>166.4</ele>
        <time>2011-08-06T18:43:53Z</time>
      </trkpt>
      <trkpt lat="63.417632" lon="10.3363716">
        <ele>165.6</ele>
        <time>2011-08-06T18:43:58Z</time>
      </trkpt>
      <trkpt lat="63.4176588" lon="10.3365602">
        <ele>167</ele>
        <time>2011-08-06T18:44:01Z</time>
      </trkpt>
      <trkpt lat="63.4176794" lon="10.3366963">
        <ele>167.6</ele>
        <time>2011-08-06T18:44:03Z</time>
      </trkpt>
      <trkpt lat="63.4177352" lon="10.3369303">
        <ele>170.4</ele>
        <time>2011-08-06T18:44:07Z</time>
      </trkpt>
      <trkpt lat="63.4178137" lon="10.3371661">
        <ele>170.4</ele>
        <time>2011-08-06T18:44:11Z</time>
      </trkpt>
      <trkpt lat="63.417865" lon="10.3375409">
        <ele>168.8</ele>
        <time>2011-08-06T18:44:17Z</time>
      </trkpt>
      <trkpt lat="63.4178837" lon="10.3378481">
        <ele>169.6</ele>
        <time>2011-08-06T18:44:22Z</time>
      </trkpt>
      <trkpt lat="63.4179023" lon="10.3379129">
        <ele>170.2</ele>
        <time>2011-08-06T18:44:23Z</time>
      </trkpt>
      <trkpt lat="63.4179464" lon="10.3380896">
        <ele>169.4</ele>
        <time>2011-08-06T18:44:26Z</time>
      </trkpt>
      <trkpt lat="63.4180355" lon="10.3383673">
        <ele>170.4</ele>
        <time>2011-08-06T18:44:30Z</time>
      </trkpt>
      <trkpt lat="63.418168" lon="10.3386588">
        <ele>177.2</ele>
        <time>2011-08-06T18:44:35Z</time>
      </trkpt>
      <trkpt lat="63.4182538" lon="10.3389196">
        <ele>170.6</ele>
        <time>2011-08-06T18:44:40Z</time>
      </trkpt>
      <trkpt lat="63.4182861" lon="10.3391662">
        <ele>166.4</ele>
        <time>2011-08-06T18:44:44Z</time>
      </trkpt>
      <trkpt lat="63.4183004" lon="10.3392143">
        <ele>167.2</ele>
        <time>2011-08-06T18:44:45Z</time>
      </trkpt>
      <trkpt lat="63.4183707" lon="10.339375">
        <ele>169.2</ele>
        <time>2011-08-06T18:44:49Z</time>
      </trkpt>
      <trkpt lat="63.4184367" lon="10.3397842">
        <ele>168.8</ele>
        <time>2011-08-06T18:44:55Z</time>
      </trkpt>
      <trkpt lat="63.4184443" lon="10.3401894">
        <ele>170</ele>
        <time>2011-08-06T18:45:00Z</time>
      </trkpt>
      <trkpt lat="63.4184462" lon="10.3402554">
        <ele>168.6</ele>
        <time>2011-08-06T18:45:01Z</time>
      </trkpt>
      <trkpt lat="63.4184908" lon="10.3404778">
        <ele>167.8</ele>
        <time>2011-08-06T18:45:05Z</time>
      </trkpt>
      <trkpt lat="63.4184867" lon="10.3405185">
        <ele>167.6</ele>
        <time>2011-08-06T18:45:08Z</time>
      </trkpt>
      <trkpt lat="63.4184697" lon="10.3405093">
        <ele>165.8</ele>
        <time>2011-08-06T18:45:09Z</time>
      </trkpt>
      <trkpt lat="63.4184805" lon="10.3405361">
        <ele>166.2</ele>
        <time>2011-08-06T18:45:11Z</time>
      </trkpt>
      <trkpt lat="63.4185257" lon="10.3406829">
        <ele>169.2</ele>
        <time>2011-08-06T18:45:14Z</time>
      </trkpt>
      <trkpt lat="63.4186135" lon="10.3409528">
        <ele>169</ele>
        <time>2011-08-06T18:45:19Z</time>
      </trkpt>
      <trkpt lat="63.418708" lon="10.3411689">
        <ele>168.6</ele>
        <time>2011-08-06T18:45:23Z</time>
      </trkpt>
      <trkpt lat="63.4188654" lon="10.3414407">
        <ele>166.4</ele>
        <time>2011-08-06T18:45:29Z</time>
      </trkpt>
      <trkpt lat="63.418989" lon="10.3417164">
        <ele>164.4</ele>
        <time>2011-08-06T18:45:34Z</time>
      </trkpt>
      <trkpt lat="63.4190286" lon="10.3420712">
        <ele>156.8</ele>
        <time>2011-08-06T18:45:39Z</time>
      </trkpt>
      <trkpt lat="63.4190466" lon="10.3424801">
        <ele>158.2</ele>
        <time>2011-08-06T18:45:44Z</time>
      </trkpt>
      <trkpt lat="63.4190455" lon="10.3425532">
        <ele>158</ele>
        <time>2011-08-06T18:45:45Z</time>
      </trkpt>
      <trkpt lat="63.4190615" lon="10.342865">
        <ele>158.8</ele>
        <time>2011-08-06T18:45:49Z</time>
      </trkpt>
      <trkpt lat="63.4191061" lon="10.3432342">
        <ele>166.6</ele>
        <time>2011-08-06T18:45:54Z</time>
      </trkpt>
      <trkpt lat="63.4191797" lon="10.3436254">
        <ele>168.6</ele>
        <time>2011-08-06T18:46:00Z</time>
      </trkpt>
      <trkpt lat="63.4192761" lon="10.3438555">
        <ele>168</ele>
        <time>2011-08-06T18:46:04Z</time>
      </trkpt>
      <trkpt lat="63.419308" lon="10.343906">
        <ele>168</ele>
        <time>2011-08-06T18:46:05Z</time>
      </trkpt>
      <trkpt lat="63.4193928" lon="10.344078">
        <ele>168.8</ele>
        <time>2011-08-06T18:46:08Z</time>
      </trkpt>
      <trkpt lat="63.4194631" lon="10.3443635">
        <ele>163.6</ele>
        <time>2011-08-06T18:46:13Z</time>
      </trkpt>
      <trkpt lat="63.4194777" lon="10.3445568">
        <ele>162.6</ele>
        <time>2011-08-06T18:46:16Z</time>
      </trkpt>
      <trkpt lat="63.419463" lon="10.3446317">
        <ele>162.2</ele>
        <time>2011-08-06T18:46:17Z</time>
      </trkpt>
      <trkpt lat="63.4194041" lon="10.3450556">
        <ele>159.2</ele>
        <time>2011-08-06T18:46:23Z</time>
      </trkpt>
      <trkpt lat="63.4193843" lon="10.3454434">
        <ele>159.8</ele>
        <time>2011-08-06T18:46:28Z</time>
      </trkpt>
      <trkpt lat="63.4193713" lon="10.3457527">
        <ele>160.6</ele>
        <time>2011-08-06T18:46:32Z</time>
      </trkpt>
      <trkpt lat="63.4193574" lon="10.3460943">
        <ele>161</ele>
        <time>2011-08-06T18:46:37Z</time>
      </trkpt>
      <trkpt lat="63.4192872" lon="10.3464358">
        <ele>158</ele>
        <time>2011-08-06T18:46:42Z</time>
      </trkpt>
      <trkpt lat="63.4192371" lon="10.3467309">
        <ele>154.6</ele>
        <time>2011-08-06T18:46:47Z</time>
      </trkpt>
      <trkpt lat="63.4191811" lon="10.3470197">
        <ele>159.4</ele>
        <time>2011-08-06T18:46:51Z</time>
      </trkpt>
      <trkpt lat="63.4190811" lon="10.3472891">
        <ele>161</ele>
        <time>2011-08-06T18:46:56Z</time>
      </trkpt>
      <trkpt lat="63.4190927" lon="10.3474909">
        <ele>163.2</ele>
        <time>2011-08-06T18:46:59Z</time>
      </trkpt>
      <trkpt lat="63.4191048" lon="10.3475606">
        <ele>164</ele>
        <time>2011-08-06T18:47:00Z</time>
      </trkpt>
      <trkpt lat="63.4191851" lon="10.3477881">
        <ele>164.6</ele>
        <time>2011-08-06T18:47:04Z</time>
      </trkpt>
      <trkpt lat="63.4192874" lon="10.3480634">
        <ele>165.4</ele>
        <time>2011-08-06T18:47:09Z</time>
      </trkpt>
      <trkpt lat="63.4193257" lon="10.3481979">
        <ele>164.6</ele>
        <time>2011-08-06T18:47:11Z</time>
      </trkpt>
      <trkpt lat="63.4193959" lon="10.3483711">
        <ele>164</ele>
        <time>2011-08-06T18:47:14Z</time>
      </trkpt>
      <trkpt lat="63.4194687" lon="10.3486465">
        <ele>160</ele>
        <time>2011-08-06T18:47:19Z</time>
      </trkpt>
      <trkpt lat="63.4195481" lon="10.3489037">
        <ele>158.8</ele>
        <time>2011-08-06T18:47:23Z</time>
      </trkpt>
      <trkpt lat="63.4195718" lon="10.3491603">
        <ele>155.4</ele>
        <time>2011-08-06T18:47:28Z</time>
      </trkpt>
      <trkpt lat="63.4195406" lon="10.3493781">
        <ele>155.2</ele>
        <time>2011-08-06T18:47:32Z</time>
      </trkpt>
      <trkpt lat="63.4194872" lon="10.3496842">
        <ele>160.2</ele>
        <time>2011-08-06T18:47:37Z</time>
      </trkpt>
      <trkpt lat="63.4194575" lon="10.3497984">
        <ele>159</ele>
        <time>2011-08-06T18:47:39Z</time>
      </trkpt>
      <trkpt lat="63.41945" lon="10.349979">
        <ele>160.6</ele>
        <time>2011-08-06T18:47:42Z</time>
      </trkpt>
      <trkpt lat="63.4194392" lon="10.3504015">
        <ele>166.8</ele>
        <time>2011-08-06T18:47:48Z</time>
      </trkpt>
      <trkpt lat="63.4194237" lon="10.3506964">
        <ele>171.8</ele>
        <time>2011-08-06T18:47:52Z</time>
      </trkpt>
      <trkpt lat="63.4194139" lon="10.351068">
        <ele>174.2</ele>
        <time>2011-08-06T18:47:58Z</time>
      </trkpt>
      <trkpt lat="63.4194212" lon="10.3512659">
        <ele>170.8</ele>
        <time>2011-08-06T18:48:02Z</time>
      </trkpt>
      <trkpt lat="63.4194036" lon="10.3513994">
        <ele>174.4</ele>
        <time>2011-08-06T18:48:04Z</time>
      </trkpt>
      <trkpt lat="63.4193594" lon="10.3514972">
        <ele>174.4</ele>
        <time>2011-08-06T18:48:06Z</time>
      </trkpt>
      <trkpt lat="63.4192554" lon="10.351772">
        <ele>170.6</ele>
        <time>2011-08-06T18:48:11Z</time>
      </trkpt>
      <trkpt lat="63.4192374" lon="10.3520874">
        <ele>167.4</ele>
        <time>2011-08-06T18:48:16Z</time>
      </trkpt>
      <trkpt lat="63.4192674" lon="10.3525509">
        <ele>166.6</ele>
        <time>2011-08-06T18:48:22Z</time>
      </trkpt>
      <trkpt lat="63.41928" lon="10.3529604">
        <ele>165.6</ele>
        <time>2011-08-06T18:48:27Z</time>
      </trkpt>
      <trkpt lat="63.4192927" lon="10.3534033">
        <ele>160.4</ele>
        <time>2011-08-06T18:48:33Z</time>
      </trkpt>
      <trkpt lat="63.419298" lon="10.3534783">
        <ele>160.2</ele>
        <time>2011-08-06T18:48:34Z</time>
      </trkpt>
      <trkpt lat="63.4193062" lon="10.3538501">
        <ele>157.8</ele>
        <time>2011-08-06T18:48:39Z</time>
      </trkpt>
      <trkpt lat="63.4193004" lon="10.3542457">
        <ele>157.4</ele>
        <time>2011-08-06T18:48:44Z</time>
      </trkpt>
      <trkpt lat="63.4193216" lon="10.3545672">
        <ele>152.8</ele>
        <time>2011-08-06T18:48:49Z</time>
      </trkpt>
      <trkpt lat="63.4193496" lon="10.3546157">
        <ele>154.2</ele>
        <time>2011-08-06T18:48:50Z</time>
      </trkpt>
      <trkpt lat="63.4194336" lon="10.3546816">
        <ele>153.4</ele>
        <time>2011-08-06T18:48:53Z</time>
      </trkpt>
      <trkpt lat="63.4194902" lon="10.3547119">
        <ele>151.2</ele>
        <time>2011-08-06T18:48:55Z</time>
      </trkpt>
      <trkpt lat="63.4195568" lon="10.3547519">
        <ele>152.2</ele>
        <time>2011-08-06T18:48:57Z</time>
      </trkpt>
      <trkpt lat="63.4196948" lon="10.3548913">
        <ele>150</ele>
        <time>2011-08-06T18:49:02Z</time>
      </trkpt>
      <trkpt lat="63.4198765" lon="10.3550586">
        <ele>149.6</ele>
        <time>2011-08-06T18:49:08Z</time>
      </trkpt>
      <trkpt lat="63.4200319" lon="10.3552079">
        <ele>149</ele>
        <time>2011-08-06T18:49:13Z</time>
      </trkpt>
      <trkpt lat="63.4201966" lon="10.3553377">
        <ele>150.4</ele>
        <time>2011-08-06T18:49:18Z</time>
      </trkpt>
      <trkpt lat="63.4203614" lon="10.3554674">
        <ele>149.6</ele>
        <time>2011-08-06T18:49:23Z</time>
      </trkpt>
      <trkpt lat="63.4204774" lon="10.3555902">
        <ele>147.6</ele>
        <time>2011-08-06T18:49:27Z</time>
      </trkpt>
      <trkpt lat="63.4206457" lon="10.3557379">
        <ele>145.8</ele>
        <time>2011-08-06T18:49:32Z</time>
      </trkpt>
      <trkpt lat="63.4208467" lon="10.3558817">
        <ele>145</ele>
        <time>2011-08-06T18:49:38Z</time>
      </trkpt>
      <trkpt lat="63.4209886" lon="10.3559753">
        <ele>145</ele>
        <time>2011-08-06T18:49:42Z</time>
      </trkpt>
      <trkpt lat="63.4211487" lon="10.3561412">
        <ele>142.6</ele>
        <time>2011-08-06T18:49:47Z</time>
      </trkpt>
      <trkpt lat="63.4213412" lon="10.356336">
        <ele>139.2</ele>
        <time>2011-08-06T18:49:53Z</time>
      </trkpt>
      <trkpt lat="63.4214996" lon="10.356479">
        <ele>138</ele>
        <time>2011-08-06T18:49:58Z</time>
      </trkpt>
      <trkpt lat="63.4216805" lon="10.3566722">
        <ele>136.4</ele>
        <time>2011-08-06T18:50:04Z</time>
      </trkpt>
      <trkpt lat="63.4217104" lon="10.3566973">
        <ele>136.6</ele>
        <time>2011-08-06T18:50:05Z</time>
      </trkpt>
      <trkpt lat="63.4218609" lon="10.3568421">
        <ele>138.4</ele>
        <time>2011-08-06T18:50:10Z</time>
      </trkpt>
      <trkpt lat="63.4220437" lon="10.3570112">
        <ele>138.2</ele>
        <time>2011-08-06T18:50:16Z</time>
      </trkpt>
      <trkpt lat="63.4222083" lon="10.3571753">
        <ele>135</ele>
        <time>2011-08-06T18:50:22Z</time>
      </trkpt>
      <trkpt lat="63.4223643" lon="10.3573141">
        <ele>133.4</ele>
        <time>2011-08-06T18:50:28Z</time>
      </trkpt>
      <trkpt lat="63.4224945" lon="10.3574604">
        <ele>133.8</ele>
        <time>2011-08-06T18:50:33Z</time>
      </trkpt>
      <trkpt lat="63.4226249" lon="10.3575302">
        <ele>133.8</ele>
        <time>2011-08-06T18:50:37Z</time>
      </trkpt>
      <trkpt lat="63.4227986" lon="10.3576757">
        <ele>134</ele>
        <time>2011-08-06T18:50:43Z</time>
      </trkpt>
      <trkpt lat="63.4229781" lon="10.3578152">
        <ele>133.4</ele>
        <time>2011-08-06T18:50:49Z</time>
      </trkpt>
      <trkpt lat="63.4231187" lon="10.3579391">
        <ele>133.6</ele>
        <time>2011-08-06T18:50:54Z</time>
      </trkpt>
      <trkpt lat="63.4232369" lon="10.358042">
        <ele>132.8</ele>
        <time>2011-08-06T18:50:58Z</time>
      </trkpt>
      <trkpt lat="63.4233761" lon="10.3581282">
        <ele>131</ele>
        <time>2011-08-06T18:51:03Z</time>
      </trkpt>
      <trkpt lat="63.4234807" lon="10.3580366">
        <ele>129.4</ele>
        <time>2011-08-06T18:51:07Z</time>
      </trkpt>
      <trkpt lat="63.4236058" lon="10.3577246">
        <ele>126.4</ele>
        <time>2011-08-06T18:51:14Z</time>
      </trkpt>
      <trkpt lat="63.4236794" lon="10.3575188">
        <ele>125</ele>
        <time>2011-08-06T18:51:19Z</time>
      </trkpt>
      <trkpt lat="63.4238066" lon="10.3574165">
        <ele>124.8</ele>
        <time>2011-08-06T18:51:24Z</time>
      </trkpt>
      <trkpt lat="63.4239204" lon="10.3572158">
        <ele>124.2</ele>
        <time>2011-08-06T18:51:29Z</time>
      </trkpt>
      <trkpt lat="63.4240071" lon="10.3568813">
        <ele>123</ele>
        <time>2011-08-06T18:51:35Z</time>
      </trkpt>
      <trkpt lat="63.4241407" lon="10.3565308">
        <ele>122.4</ele>
        <time>2011-08-06T18:51:42Z</time>
      </trkpt>
      <trkpt lat="63.4242515" lon="10.3561689">
        <ele>121.8</ele>
        <time>2011-08-06T18:51:49Z</time>
      </trkpt>
      <trkpt lat="63.4243474" lon="10.3559155">
        <ele>121.4</ele>
        <time>2011-08-06T18:51:54Z</time>
      </trkpt>
      <trkpt lat="63.4244443" lon="10.3556797">
        <ele>119.8</ele>
        <time>2011-08-06T18:51:59Z</time>
      </trkpt>
      <trkpt lat="63.4245514" lon="10.3553502">
        <ele>118.8</ele>
        <time>2011-08-06T18:52:05Z</time>
      </trkpt>
      <trkpt lat="63.4245847" lon="10.3552422">
        <ele>118.8</ele>
        <time>2011-08-06T18:52:07Z</time>
      </trkpt>
      <trkpt lat="63.4247166" lon="10.3549385">
        <ele>118.4</ele>
        <time>2011-08-06T18:52:13Z</time>
      </trkpt>
      <trkpt lat="63.4248142" lon="10.3546601">
        <ele>118.2</ele>
        <time>2011-08-06T18:52:18Z</time>
      </trkpt>
      <trkpt lat="63.4248619" lon="10.3544123">
        <ele>118.2</ele>
        <time>2011-08-06T18:52:22Z</time>
      </trkpt>
      <trkpt lat="63.4249635" lon="10.3541068">
        <ele>119.6</ele>
        <time>2011-08-06T18:52:27Z</time>
      </trkpt>
      <trkpt lat="63.4250162" lon="10.3538721">
        <ele>118.8</ele>
        <time>2011-08-06T18:52:32Z</time>
      </trkpt>
      <trkpt lat="63.4251141" lon="10.3537026">
        <ele>115.8</ele>
        <time>2011-08-06T18:52:37Z</time>
      </trkpt>
      <trkpt lat="63.4253012" lon="10.3535944">
        <ele>113.6</ele>
        <time>2011-08-06T18:52:42Z</time>
      </trkpt>
      <trkpt lat="63.4254403" lon="10.3536375">
        <ele>111.8</ele>
        <time>2011-08-06T18:52:46Z</time>
      </trkpt>
      <trkpt lat="63.4255906" lon="10.3538043">
        <ele>110.6</ele>
        <time>2011-08-06T18:52:51Z</time>
      </trkpt>
      <trkpt lat="63.4257086" lon="10.3540968">
        <ele>109</ele>
        <time>2011-08-06T18:52:56Z</time>
      </trkpt>
      <trkpt lat="63.4257787" lon="10.354418">
        <ele>105.8</ele>
        <time>2011-08-06T18:53:01Z</time>
      </trkpt>
      <trkpt lat="63.4258145" lon="10.3547744">
        <ele>104.2</ele>
        <time>2011-08-06T18:53:06Z</time>
      </trkpt>
      <trkpt lat="63.4258501" lon="10.3552012">
        <ele>103.2</ele>
        <time>2011-08-06T18:53:12Z</time>
      </trkpt>
      <trkpt lat="63.4258335" lon="10.3555087">
        <ele>103</ele>
        <time>2011-08-06T18:53:16Z</time>
      </trkpt>
      <trkpt lat="63.4257929" lon="10.3559523">
        <ele>103.8</ele>
        <time>2011-08-06T18:53:22Z</time>
      </trkpt>
      <trkpt lat="63.4257852" lon="10.3560273">
        <ele>103.8</ele>
        <time>2011-08-06T18:53:23Z</time>
      </trkpt>
      <trkpt lat="63.4257497" lon="10.3563594">
        <ele>101.8</ele>
        <time>2011-08-06T18:53:28Z</time>
      </trkpt>
      <trkpt lat="63.4257367" lon="10.3567151">
        <ele>101.6</ele>
        <time>2011-08-06T18:53:33Z</time>
      </trkpt>
      <trkpt lat="63.4257825" lon="10.3570517">
        <ele>99.6</ele>
        <time>2011-08-06T18:53:38Z</time>
      </trkpt>
      <trkpt lat="63.4258932" lon="10.3572942">
        <ele>99.2</ele>
        <time>2011-08-06T18:53:43Z</time>
      </trkpt>
      <trkpt lat="63.4260308" lon="10.3573816">
        <ele>97.8</ele>
        <time>2011-08-06T18:53:48Z</time>
      </trkpt>
      <trkpt lat="63.426174" lon="10.3573174">
        <ele>99.4</ele>
        <time>2011-08-06T18:53:53Z</time>
      </trkpt>
      <trkpt lat="63.4263218" lon="10.3572038">
        <ele>99.6</ele>
        <time>2011-08-06T18:53:58Z</time>
      </trkpt>
      <trkpt lat="63.4265122" lon="10.3570547">
        <ele>98.2</ele>
        <time>2011-08-06T18:54:04Z</time>
      </trkpt>
      <trkpt lat="63.4266695" lon="10.3569373">
        <ele>98</ele>
        <time>2011-08-06T18:54:09Z</time>
      </trkpt>
      <trkpt lat="63.4268259" lon="10.3568171">
        <ele>95.8</ele>
        <time>2011-08-06T18:54:14Z</time>
      </trkpt>
      <trkpt lat="63.4269429" lon="10.3566553">
        <ele>95.8</ele>
        <time>2011-08-06T18:54:19Z</time>
      </trkpt>
      <trkpt lat="63.42705" lon="10.3564828">
        <ele>97.4</ele>
        <time>2011-08-06T18:54:24Z</time>
      </trkpt>
      <trkpt lat="63.4270916" lon="10.356431">
        <ele>97.6</ele>
        <time>2011-08-06T18:54:28Z</time>
      </trkpt>
      <trkpt lat="63.4271528" lon="10.3563588">
        <ele>96.6</ele>
        <time>2011-08-06T18:54:32Z</time>
      </trkpt>
      <trkpt lat="63.427265" lon="10.3562318">
        <ele>95.4</ele>
        <time>2011-08-06T18:54:36Z</time>
      </trkpt>
      <trkpt lat="63.4273847" lon="10.3560348">
        <ele>95.8</ele>
        <time>2011-08-06T18:54:41Z</time>
      </trkpt>
      <trkpt lat="63.4274977" lon="10.3558366">
        <ele>94.6</ele>
        <time>2011-08-06T18:54:46Z</time>
      </trkpt>
      <trkpt lat="63.4276197" lon="10.3556048">
        <ele>96.2</ele>
        <time>2011-08-06T18:54:51Z</time>
      </trkpt>
      <trkpt lat="63.4277256" lon="10.3554899">
        <ele>95.4</ele>
        <time>2011-08-06T18:54:55Z</time>
      </trkpt>
      <trkpt lat="63.4278989" lon="10.3553059">
        <ele>94.4</ele>
        <time>2011-08-06T18:55:01Z</time>
      </trkpt>
      <trkpt lat="63.4280645" lon="10.3550966">
        <ele>93.8</ele>
        <time>2011-08-06T18:55:07Z</time>
      </trkpt>
      <trkpt lat="63.4281717" lon="10.3548553">
        <ele>92.6</ele>
        <time>2011-08-06T18:55:12Z</time>
      </trkpt>
      <trkpt lat="63.4282448" lon="10.3545661">
        <ele>90.6</ele>
        <time>2011-08-06T18:55:17Z</time>
      </trkpt>
      <trkpt lat="63.428275" lon="10.3541601">
        <ele>88.4</ele>
        <time>2011-08-06T18:55:23Z</time>
      </trkpt>
      <trkpt lat="63.428307" lon="10.3537485">
        <ele>84.4</ele>
        <time>2011-08-06T18:55:29Z</time>
      </trkpt>
      <trkpt lat="63.4283562" lon="10.3533853">
        <ele>81.6</ele>
        <time>2011-08-06T18:55:34Z</time>
      </trkpt>
      <trkpt lat="63.4284747" lon="10.3530812">
        <ele>83.2</ele>
        <time>2011-08-06T18:55:39Z</time>
      </trkpt>
      <trkpt lat="63.4286631" lon="10.3529936">
        <ele>83.6</ele>
        <time>2011-08-06T18:55:44Z</time>
      </trkpt>
      <trkpt lat="63.4288225" lon="10.3532023">
        <ele>79</ele>
        <time>2011-08-06T18:55:49Z</time>
      </trkpt>
      <trkpt lat="63.4289469" lon="10.3535063">
        <ele>73.4</ele>
        <time>2011-08-06T18:55:54Z</time>
      </trkpt>
      <trkpt lat="63.4289734" lon="10.3535574">
        <ele>73.2</ele>
        <time>2011-08-06T18:55:55Z</time>
      </trkpt>
      <trkpt lat="63.4291263" lon="10.3538265">
        <ele>71.6</ele>
        <time>2011-08-06T18:56:00Z</time>
      </trkpt>
      <trkpt lat="63.4292865" lon="10.3540606">
        <ele>71.4</ele>
        <time>2011-08-06T18:56:05Z</time>
      </trkpt>
      <trkpt lat="63.4294738" lon="10.3542677">
        <ele>75.8</ele>
        <time>2011-08-06T18:56:11Z</time>
      </trkpt>
      <trkpt lat="63.4295921" lon="10.3543727">
        <ele>78</ele>
        <time>2011-08-06T18:56:15Z</time>
      </trkpt>
      <trkpt lat="63.4298037" lon="10.3544399">
        <ele>83.2</ele>
        <time>2011-08-06T18:56:21Z</time>
      </trkpt>
      <trkpt lat="63.429976" lon="10.3544896">
        <ele>85.2</ele>
        <time>2011-08-06T18:56:26Z</time>
      </trkpt>
      <trkpt lat="63.4301064" lon="10.3543736">
        <ele>88.2</ele>
        <time>2011-08-06T18:56:31Z</time>
      </trkpt>
      <trkpt lat="63.4302153" lon="10.3540887">
        <ele>87</ele>
        <time>2011-08-06T18:56:36Z</time>
      </trkpt>
      <trkpt lat="63.4304031" lon="10.3539374">
        <ele>85.6</ele>
        <time>2011-08-06T18:56:42Z</time>
      </trkpt>
      <trkpt lat="63.4305348" lon="10.3536899">
        <ele>89.4</ele>
        <time>2011-08-06T18:56:46Z</time>
      </trkpt>
      <trkpt lat="63.4306863" lon="10.3534658">
        <ele>94.4</ele>
        <time>2011-08-06T18:56:50Z</time>
      </trkpt>
      <trkpt lat="63.4307295" lon="10.3534181">
        <ele>93.8</ele>
        <time>2011-08-06T18:56:51Z</time>
      </trkpt>
      <trkpt lat="63.4307573" lon="10.3533726">
        <ele>91</ele>
        <time>2011-08-06T18:56:52Z</time>
      </trkpt>
      <trkpt lat="63.4308127" lon="10.3533045">
        <ele>87.6</ele>
        <time>2011-08-06T18:56:54Z</time>
      </trkpt>
      <trkpt lat="63.4308715" lon="10.3533258">
        <ele>86.8</ele>
        <time>2011-08-06T18:56:57Z</time>
      </trkpt>
      <trkpt lat="63.4309065" lon="10.3533917">
        <ele>77.8</ele>
        <time>2011-08-06T18:57:02Z</time>
      </trkpt>
      <trkpt lat="63.4309129" lon="10.3534046">
        <ele>77.2</ele>
        <time>2011-08-06T18:57:03Z</time>
      </trkpt>
      <trkpt lat="63.4309329" lon="10.3534595">
        <ele>69.8</ele>
        <time>2011-08-06T18:57:09Z</time>
      </trkpt>
      <trkpt lat="63.4309317" lon="10.3534545">
        <ele>67</ele>
        <time>2011-08-06T18:57:16Z</time>
      </trkpt>
      <trkpt lat="63.4309113" lon="10.353482">
        <ele>64</ele>
        <time>2011-08-06T18:57:21Z</time>
      </trkpt>
    </trkseg>
  </trk>
</gpx>